<?xml version="1.0" encoding="UTF-8" standalone="no" ?>
<gpx xmlns="http://www.topografix.com/GPX/1/1" xmlns:xsi="http://www.w3.org/2001/XMLSchema-instance" xsi:schemaLocation="http://www.topografix.com/GPX/1/1 http://www.topografix.com/GPX/1/1/gpx.xsd" version="1.1" creator="VisuGPX - https://www.visugpx.com">
  <metadata>
    <name>Tracé actuel: 06 DEC 2013 09:42</name>
  </metadata>
  <trk>
    <name><![CDATA[Tracé actuel: 06 DEC 2013 09:42]]></name>
    <trkseg>
      <trkpt lat="48.89876" lon="2.09661">
        <ele>83.77</ele>
        <time>2013-12-06T08:49:54Z</time>
      </trkpt>
      <trkpt lat="48.89888" lon="2.09692">
        <ele>80.89</ele>
        <time>2013-12-06T08:50:12Z</time>
      </trkpt>
      <trkpt lat="48.89905" lon="2.09718">
        <ele>78.97</ele>
        <time>2013-12-06T08:50:32Z</time>
      </trkpt>
      <trkpt lat="48.89925" lon="2.09723">
        <ele>83.29</ele>
        <time>2013-12-06T08:50:49Z</time>
      </trkpt>
      <trkpt lat="48.89981" lon="2.09717">
        <ele>84.73</ele>
        <time>2013-12-06T08:56:59Z</time>
      </trkpt>
      <trkpt lat="48.90005" lon="2.09718">
        <ele>85.21</ele>
        <time>2013-12-06T08:57:18Z</time>
      </trkpt>
      <trkpt lat="48.90029" lon="2.09716">
        <ele>80.89</ele>
        <time>2013-12-06T08:57:35Z</time>
      </trkpt>
      <trkpt lat="48.9005" lon="2.09716">
        <ele>79.93</ele>
        <time>2013-12-06T08:57:51Z</time>
      </trkpt>
      <trkpt lat="48.90069" lon="2.09715">
        <ele>81.37</ele>
        <time>2013-12-06T08:58:06Z</time>
      </trkpt>
      <trkpt lat="48.90092" lon="2.09715">
        <ele>81.85</ele>
        <time>2013-12-06T08:58:23Z</time>
      </trkpt>
      <trkpt lat="48.90115" lon="2.09714">
        <ele>81.85</ele>
        <time>2013-12-06T08:58:42Z</time>
      </trkpt>
      <trkpt lat="48.90138" lon="2.09712">
        <ele>80.89</ele>
        <time>2013-12-06T08:58:58Z</time>
      </trkpt>
      <trkpt lat="48.90162" lon="2.09711">
        <ele>79.45</ele>
        <time>2013-12-06T08:59:16Z</time>
      </trkpt>
      <trkpt lat="48.90175" lon="2.09712">
        <ele>78.48</ele>
        <time>2013-12-06T08:59:27Z</time>
      </trkpt>
      <trkpt lat="48.90191" lon="2.09739">
        <ele>77.52</ele>
        <time>2013-12-06T08:59:44Z</time>
      </trkpt>
      <trkpt lat="48.90204" lon="2.09769">
        <ele>76.56</ele>
        <time>2013-12-06T08:59:59Z</time>
      </trkpt>
      <trkpt lat="48.90212" lon="2.09798">
        <ele>76.08</ele>
        <time>2013-12-06T09:00:17Z</time>
      </trkpt>
      <trkpt lat="48.90226" lon="2.09824">
        <ele>78</ele>
        <time>2013-12-06T09:00:33Z</time>
      </trkpt>
      <trkpt lat="48.90231" lon="2.09847">
        <ele>77.52</ele>
        <time>2013-12-06T09:00:46Z</time>
      </trkpt>
      <trkpt lat="48.90243" lon="2.09869">
        <ele>77.52</ele>
        <time>2013-12-06T09:01:00Z</time>
      </trkpt>
      <trkpt lat="48.90251" lon="2.09898">
        <ele>75.12</ele>
        <time>2013-12-06T09:01:15Z</time>
      </trkpt>
      <trkpt lat="48.90262" lon="2.09919">
        <ele>73.68</ele>
        <time>2013-12-06T09:01:31Z</time>
      </trkpt>
      <trkpt lat="48.90268" lon="2.09931">
        <ele>73.2</ele>
        <time>2013-12-06T09:01:39Z</time>
      </trkpt>
      <trkpt lat="48.90279" lon="2.09953">
        <ele>71.76</ele>
        <time>2013-12-06T09:01:54Z</time>
      </trkpt>
      <trkpt lat="48.90291" lon="2.09985">
        <ele>71.27</ele>
        <time>2013-12-06T09:02:12Z</time>
      </trkpt>
      <trkpt lat="48.90302" lon="2.10023">
        <ele>72.24</ele>
        <time>2013-12-06T09:02:31Z</time>
      </trkpt>
      <trkpt lat="48.90317" lon="2.10047">
        <ele>72.24</ele>
        <time>2013-12-06T09:02:49Z</time>
      </trkpt>
      <trkpt lat="48.90333" lon="2.10067">
        <ele>71.27</ele>
        <time>2013-12-06T09:03:06Z</time>
      </trkpt>
      <trkpt lat="48.9035" lon="2.10068">
        <ele>71.76</ele>
        <time>2013-12-06T09:03:20Z</time>
      </trkpt>
      <trkpt lat="48.90374" lon="2.10068">
        <ele>73.2</ele>
        <time>2013-12-06T09:03:38Z</time>
      </trkpt>
      <trkpt lat="48.9039" lon="2.10069">
        <ele>73.68</ele>
        <time>2013-12-06T09:03:54Z</time>
      </trkpt>
      <trkpt lat="48.90412" lon="2.1007">
        <ele>75.12</ele>
        <time>2013-12-06T09:04:09Z</time>
      </trkpt>
      <trkpt lat="48.90438" lon="2.10068">
        <ele>79.93</ele>
        <time>2013-12-06T09:04:27Z</time>
      </trkpt>
      <trkpt lat="48.9046" lon="2.10065">
        <ele>81.37</ele>
        <time>2013-12-06T09:04:43Z</time>
      </trkpt>
      <trkpt lat="48.90481" lon="2.10065">
        <ele>79.45</ele>
        <time>2013-12-06T09:04:59Z</time>
      </trkpt>
      <trkpt lat="48.905" lon="2.10065">
        <ele>75.6</ele>
        <time>2013-12-06T09:05:13Z</time>
      </trkpt>
      <trkpt lat="48.90516" lon="2.1006">
        <ele>73.2</ele>
        <time>2013-12-06T09:05:25Z</time>
      </trkpt>
      <trkpt lat="48.90533" lon="2.10061">
        <ele>72.24</ele>
        <time>2013-12-06T09:05:40Z</time>
      </trkpt>
      <trkpt lat="48.9055" lon="2.10063">
        <ele>72.72</ele>
        <time>2013-12-06T09:05:54Z</time>
      </trkpt>
      <trkpt lat="48.9057" lon="2.10062">
        <ele>73.2</ele>
        <time>2013-12-06T09:06:10Z</time>
      </trkpt>
      <trkpt lat="48.90592" lon="2.10063">
        <ele>73.2</ele>
        <time>2013-12-06T09:06:26Z</time>
      </trkpt>
      <trkpt lat="48.90613" lon="2.10064">
        <ele>74.64</ele>
        <time>2013-12-06T09:06:42Z</time>
      </trkpt>
      <trkpt lat="48.90631" lon="2.10065">
        <ele>74.16</ele>
        <time>2013-12-06T09:06:57Z</time>
      </trkpt>
      <trkpt lat="48.90649" lon="2.10066">
        <ele>73.68</ele>
        <time>2013-12-06T09:07:11Z</time>
      </trkpt>
      <trkpt lat="48.90662" lon="2.10065">
        <ele>72.72</ele>
        <time>2013-12-06T09:07:24Z</time>
      </trkpt>
      <trkpt lat="48.90676" lon="2.10065">
        <ele>70.31</ele>
        <time>2013-12-06T09:07:37Z</time>
      </trkpt>
      <trkpt lat="48.90694" lon="2.10062">
        <ele>69.35</ele>
        <time>2013-12-06T09:07:51Z</time>
      </trkpt>
      <trkpt lat="48.90712" lon="2.10059">
        <ele>71.76</ele>
        <time>2013-12-06T09:08:03Z</time>
      </trkpt>
      <trkpt lat="48.90732" lon="2.10044">
        <ele>74.16</ele>
        <time>2013-12-06T09:08:16Z</time>
      </trkpt>
      <trkpt lat="48.90737" lon="2.10033">
        <ele>75.12</ele>
        <time>2013-12-06T09:08:22Z</time>
      </trkpt>
      <trkpt lat="48.90747" lon="2.10019">
        <ele>77.52</ele>
        <time>2013-12-06T09:08:34Z</time>
      </trkpt>
      <trkpt lat="48.90747" lon="2.10017">
        <ele>77.04</ele>
        <time>2013-12-06T09:08:35Z</time>
      </trkpt>
      <trkpt lat="48.9076" lon="2.09988">
        <ele>78.48</ele>
        <time>2013-12-06T09:08:50Z</time>
      </trkpt>
      <trkpt lat="48.90766" lon="2.09974">
        <ele>79.93</ele>
        <time>2013-12-06T09:09:01Z</time>
      </trkpt>
      <trkpt lat="48.90776" lon="2.0995">
        <ele>78.48</ele>
        <time>2013-12-06T09:09:16Z</time>
      </trkpt>
      <trkpt lat="48.90783" lon="2.0993">
        <ele>78.48</ele>
        <time>2013-12-06T09:09:26Z</time>
      </trkpt>
      <trkpt lat="48.90787" lon="2.09917">
        <ele>79.93</ele>
        <time>2013-12-06T09:09:38Z</time>
      </trkpt>
      <trkpt lat="48.90793" lon="2.09894">
        <ele>79.93</ele>
        <time>2013-12-06T09:09:50Z</time>
      </trkpt>
      <trkpt lat="48.90803" lon="2.09878">
        <ele>80.89</ele>
        <time>2013-12-06T09:09:58Z</time>
      </trkpt>
      <trkpt lat="48.90815" lon="2.09854">
        <ele>80.41</ele>
        <time>2013-12-06T09:10:12Z</time>
      </trkpt>
      <trkpt lat="48.9082" lon="2.09839">
        <ele>82.81</ele>
        <time>2013-12-06T09:10:24Z</time>
      </trkpt>
      <trkpt lat="48.90827" lon="2.09813">
        <ele>83.77</ele>
        <time>2013-12-06T09:10:39Z</time>
      </trkpt>
      <trkpt lat="48.90836" lon="2.09791">
        <ele>82.33</ele>
        <time>2013-12-06T09:10:52Z</time>
      </trkpt>
      <trkpt lat="48.90848" lon="2.09774">
        <ele>81.37</ele>
        <time>2013-12-06T09:11:07Z</time>
      </trkpt>
      <trkpt lat="48.90851" lon="2.09772">
        <ele>83.77</ele>
        <time>2013-12-06T09:11:22Z</time>
      </trkpt>
      <trkpt lat="48.90856" lon="2.09758">
        <ele>85.69</ele>
        <time>2013-12-06T09:11:38Z</time>
      </trkpt>
      <trkpt lat="48.9086" lon="2.09746">
        <ele>86.18</ele>
        <time>2013-12-06T09:11:44Z</time>
      </trkpt>
      <trkpt lat="48.9087" lon="2.09714">
        <ele>78.97</ele>
        <time>2013-12-06T09:12:03Z</time>
      </trkpt>
      <trkpt lat="48.90882" lon="2.09683">
        <ele>73.2</ele>
        <time>2013-12-06T09:12:26Z</time>
      </trkpt>
      <trkpt lat="48.90877" lon="2.09684">
        <ele>70.31</ele>
        <time>2013-12-06T09:12:43Z</time>
      </trkpt>
      <trkpt lat="48.90876" lon="2.09683">
        <ele>71.27</ele>
        <time>2013-12-06T09:12:59Z</time>
      </trkpt>
      <trkpt lat="48.90876" lon="2.09683">
        <ele>71.76</ele>
        <time>2013-12-06T09:13:03Z</time>
      </trkpt>
      <trkpt lat="48.90883" lon="2.09683">
        <ele>68.39</ele>
        <time>2013-12-06T09:13:15Z</time>
      </trkpt>
      <trkpt lat="48.90898" lon="2.09686">
        <ele>64.07</ele>
        <time>2013-12-06T09:13:29Z</time>
      </trkpt>
      <trkpt lat="48.90914" lon="2.09687">
        <ele>63.1</ele>
        <time>2013-12-06T09:13:41Z</time>
      </trkpt>
      <trkpt lat="48.90928" lon="2.0969">
        <ele>64.07</ele>
        <time>2013-12-06T09:13:52Z</time>
      </trkpt>
      <trkpt lat="48.90954" lon="2.09686">
        <ele>66.95</ele>
        <time>2013-12-06T09:14:06Z</time>
      </trkpt>
      <trkpt lat="48.90971" lon="2.09686">
        <ele>69.35</ele>
        <time>2013-12-06T09:14:22Z</time>
      </trkpt>
      <trkpt lat="48.90981" lon="2.09683">
        <ele>68.39</ele>
        <time>2013-12-06T09:14:36Z</time>
      </trkpt>
      <trkpt lat="48.90992" lon="2.09681">
        <ele>62.14</ele>
        <time>2013-12-06T09:14:50Z</time>
      </trkpt>
      <trkpt lat="48.91007" lon="2.09676">
        <ele>53.97</ele>
        <time>2013-12-06T09:15:04Z</time>
      </trkpt>
      <trkpt lat="48.91025" lon="2.09675">
        <ele>53.97</ele>
        <time>2013-12-06T09:15:19Z</time>
      </trkpt>
      <trkpt lat="48.91043" lon="2.09672">
        <ele>55.41</ele>
        <time>2013-12-06T09:15:33Z</time>
      </trkpt>
      <trkpt lat="48.91064" lon="2.09671">
        <ele>62.14</ele>
        <time>2013-12-06T09:15:47Z</time>
      </trkpt>
      <trkpt lat="48.91084" lon="2.09676">
        <ele>66.47</ele>
        <time>2013-12-06T09:16:00Z</time>
      </trkpt>
      <trkpt lat="48.91102" lon="2.09676">
        <ele>68.87</ele>
        <time>2013-12-06T09:16:13Z</time>
      </trkpt>
      <trkpt lat="48.91122" lon="2.09675">
        <ele>69.83</ele>
        <time>2013-12-06T09:16:28Z</time>
      </trkpt>
      <trkpt lat="48.9114" lon="2.09677">
        <ele>69.35</ele>
        <time>2013-12-06T09:16:42Z</time>
      </trkpt>
      <trkpt lat="48.91159" lon="2.09672">
        <ele>70.79</ele>
        <time>2013-12-06T09:16:56Z</time>
      </trkpt>
      <trkpt lat="48.91161" lon="2.09674">
        <ele>71.27</ele>
        <time>2013-12-06T09:17:01Z</time>
      </trkpt>
      <trkpt lat="48.91181" lon="2.09676">
        <ele>70.31</ele>
        <time>2013-12-06T09:17:15Z</time>
      </trkpt>
      <trkpt lat="48.91199" lon="2.09674">
        <ele>72.24</ele>
        <time>2013-12-06T09:17:28Z</time>
      </trkpt>
      <trkpt lat="48.91206" lon="2.09673">
        <ele>72.24</ele>
        <time>2013-12-06T09:17:33Z</time>
      </trkpt>
      <trkpt lat="48.91224" lon="2.09675">
        <ele>73.68</ele>
        <time>2013-12-06T09:17:48Z</time>
      </trkpt>
      <trkpt lat="48.91242" lon="2.0968">
        <ele>72.72</ele>
        <time>2013-12-06T09:18:01Z</time>
      </trkpt>
      <trkpt lat="48.91263" lon="2.09677">
        <ele>73.68</ele>
        <time>2013-12-06T09:18:17Z</time>
      </trkpt>
      <trkpt lat="48.91266" lon="2.09676">
        <ele>73.68</ele>
        <time>2013-12-06T09:18:19Z</time>
      </trkpt>
      <trkpt lat="48.91288" lon="2.09673">
        <ele>76.08</ele>
        <time>2013-12-06T09:18:32Z</time>
      </trkpt>
      <trkpt lat="48.91301" lon="2.09668">
        <ele>74.64</ele>
        <time>2013-12-06T09:18:46Z</time>
      </trkpt>
      <trkpt lat="48.91313" lon="2.09667">
        <ele>75.12</ele>
        <time>2013-12-06T09:18:54Z</time>
      </trkpt>
      <trkpt lat="48.91332" lon="2.0967">
        <ele>75.6</ele>
        <time>2013-12-06T09:19:08Z</time>
      </trkpt>
      <trkpt lat="48.91339" lon="2.09668">
        <ele>73.2</ele>
        <time>2013-12-06T09:19:18Z</time>
      </trkpt>
      <trkpt lat="48.91361" lon="2.09665">
        <ele>73.2</ele>
        <time>2013-12-06T09:19:31Z</time>
      </trkpt>
      <trkpt lat="48.91377" lon="2.09665">
        <ele>71.27</ele>
        <time>2013-12-06T09:19:45Z</time>
      </trkpt>
      <trkpt lat="48.91389" lon="2.09657">
        <ele>70.31</ele>
        <time>2013-12-06T09:19:57Z</time>
      </trkpt>
      <trkpt lat="48.91409" lon="2.09658">
        <ele>70.31</ele>
        <time>2013-12-06T09:20:09Z</time>
      </trkpt>
      <trkpt lat="48.91422" lon="2.09657">
        <ele>69.83</ele>
        <time>2013-12-06T09:20:20Z</time>
      </trkpt>
      <trkpt lat="48.91423" lon="2.09656">
        <ele>69.83</ele>
        <time>2013-12-06T09:20:21Z</time>
      </trkpt>
      <trkpt lat="48.91429" lon="2.09658">
        <ele>69.83</ele>
        <time>2013-12-06T09:20:25Z</time>
      </trkpt>
      <trkpt lat="48.91449" lon="2.0966">
        <ele>65.99</ele>
        <time>2013-12-06T09:20:41Z</time>
      </trkpt>
      <trkpt lat="48.91456" lon="2.09658">
        <ele>64.55</ele>
        <time>2013-12-06T09:20:49Z</time>
      </trkpt>
      <trkpt lat="48.91462" lon="2.09653">
        <ele>64.55</ele>
        <time>2013-12-06T09:20:53Z</time>
      </trkpt>
      <trkpt lat="48.91482" lon="2.09655">
        <ele>61.18</ele>
        <time>2013-12-06T09:21:07Z</time>
      </trkpt>
      <trkpt lat="48.9149" lon="2.09654">
        <ele>61.18</ele>
        <time>2013-12-06T09:21:14Z</time>
      </trkpt>
      <trkpt lat="48.91513" lon="2.09654">
        <ele>61.66</ele>
        <time>2013-12-06T09:21:27Z</time>
      </trkpt>
      <trkpt lat="48.91517" lon="2.09655">
        <ele>61.18</ele>
        <time>2013-12-06T09:21:31Z</time>
      </trkpt>
      <trkpt lat="48.91531" lon="2.09653">
        <ele>62.14</ele>
        <time>2013-12-06T09:21:44Z</time>
      </trkpt>
      <trkpt lat="48.91535" lon="2.09653">
        <ele>62.62</ele>
        <time>2013-12-06T09:21:47Z</time>
      </trkpt>
      <trkpt lat="48.91543" lon="2.09652">
        <ele>62.62</ele>
        <time>2013-12-06T09:21:55Z</time>
      </trkpt>
      <trkpt lat="48.91563" lon="2.09653">
        <ele>61.66</ele>
        <time>2013-12-06T09:22:09Z</time>
      </trkpt>
      <trkpt lat="48.91576" lon="2.09651">
        <ele>62.14</ele>
        <time>2013-12-06T09:22:23Z</time>
      </trkpt>
      <trkpt lat="48.916" lon="2.0965">
        <ele>63.58</ele>
        <time>2013-12-06T09:22:38Z</time>
      </trkpt>
      <trkpt lat="48.91619" lon="2.09649">
        <ele>62.62</ele>
        <time>2013-12-06T09:22:53Z</time>
      </trkpt>
      <trkpt lat="48.9162" lon="2.09649">
        <ele>62.14</ele>
        <time>2013-12-06T09:22:54Z</time>
      </trkpt>
      <trkpt lat="48.91629" lon="2.09649">
        <ele>61.66</ele>
        <time>2013-12-06T09:22:59Z</time>
      </trkpt>
      <trkpt lat="48.91652" lon="2.09651">
        <ele>61.66</ele>
        <time>2013-12-06T09:23:13Z</time>
      </trkpt>
      <trkpt lat="48.91664" lon="2.09647">
        <ele>63.58</ele>
        <time>2013-12-06T09:23:26Z</time>
      </trkpt>
      <trkpt lat="48.91669" lon="2.09645">
        <ele>65.03</ele>
        <time>2013-12-06T09:23:30Z</time>
      </trkpt>
      <trkpt lat="48.91678" lon="2.09646">
        <ele>67.43</ele>
        <time>2013-12-06T09:23:35Z</time>
      </trkpt>
      <trkpt lat="48.91697" lon="2.09647">
        <ele>68.39</ele>
        <time>2013-12-06T09:23:48Z</time>
      </trkpt>
      <trkpt lat="48.91714" lon="2.09647">
        <ele>68.87</ele>
        <time>2013-12-06T09:24:05Z</time>
      </trkpt>
      <trkpt lat="48.91736" lon="2.09645">
        <ele>71.27</ele>
        <time>2013-12-06T09:24:24Z</time>
      </trkpt>
      <trkpt lat="48.9176" lon="2.09644">
        <ele>71.27</ele>
        <time>2013-12-06T09:24:39Z</time>
      </trkpt>
      <trkpt lat="48.91762" lon="2.09644">
        <ele>70.79</ele>
        <time>2013-12-06T09:24:40Z</time>
      </trkpt>
      <trkpt lat="48.91776" lon="2.09642">
        <ele>68.87</ele>
        <time>2013-12-06T09:24:54Z</time>
      </trkpt>
      <trkpt lat="48.91795" lon="2.09642">
        <ele>72.72</ele>
        <time>2013-12-06T09:25:06Z</time>
      </trkpt>
      <trkpt lat="48.91797" lon="2.09642">
        <ele>73.2</ele>
        <time>2013-12-06T09:25:07Z</time>
      </trkpt>
      <trkpt lat="48.91821" lon="2.09641">
        <ele>72.72</ele>
        <time>2013-12-06T09:25:26Z</time>
      </trkpt>
      <trkpt lat="48.91831" lon="2.09632">
        <ele>72.72</ele>
        <time>2013-12-06T09:25:39Z</time>
      </trkpt>
      <trkpt lat="48.91825" lon="2.09625">
        <ele>70.79</ele>
        <time>2013-12-06T09:25:48Z</time>
      </trkpt>
      <trkpt lat="48.91808" lon="2.09608">
        <ele>72.24</ele>
        <time>2013-12-06T09:26:01Z</time>
      </trkpt>
      <trkpt lat="48.91795" lon="2.09586">
        <ele>69.35</ele>
        <time>2013-12-06T09:26:18Z</time>
      </trkpt>
      <trkpt lat="48.91792" lon="2.09551">
        <ele>66.95</ele>
        <time>2013-12-06T09:26:40Z</time>
      </trkpt>
      <trkpt lat="48.91798" lon="2.09522">
        <ele>65.51</ele>
        <time>2013-12-06T09:26:58Z</time>
      </trkpt>
      <trkpt lat="48.91803" lon="2.09496">
        <ele>66.47</ele>
        <time>2013-12-06T09:27:14Z</time>
      </trkpt>
      <trkpt lat="48.9181" lon="2.09467">
        <ele>66.95</ele>
        <time>2013-12-06T09:27:30Z</time>
      </trkpt>
      <trkpt lat="48.91823" lon="2.09443">
        <ele>68.87</ele>
        <time>2013-12-06T09:27:47Z</time>
      </trkpt>
      <trkpt lat="48.91832" lon="2.09429">
        <ele>68.87</ele>
        <time>2013-12-06T09:28:00Z</time>
      </trkpt>
      <trkpt lat="48.91841" lon="2.09399">
        <ele>70.31</ele>
        <time>2013-12-06T09:28:17Z</time>
      </trkpt>
      <trkpt lat="48.91836" lon="2.09377">
        <ele>71.27</ele>
        <time>2013-12-06T09:28:31Z</time>
      </trkpt>
      <trkpt lat="48.91822" lon="2.0935">
        <ele>72.72</ele>
        <time>2013-12-06T09:28:50Z</time>
      </trkpt>
      <trkpt lat="48.91812" lon="2.09338">
        <ele>73.2</ele>
        <time>2013-12-06T09:29:02Z</time>
      </trkpt>
      <trkpt lat="48.91808" lon="2.0933">
        <ele>73.68</ele>
        <time>2013-12-06T09:29:07Z</time>
      </trkpt>
      <trkpt lat="48.91807" lon="2.09288">
        <ele>74.64</ele>
        <time>2013-12-06T09:29:23Z</time>
      </trkpt>
      <trkpt lat="48.91818" lon="2.09261">
        <ele>75.12</ele>
        <time>2013-12-06T09:29:37Z</time>
      </trkpt>
      <trkpt lat="48.91822" lon="2.09239">
        <ele>76.56</ele>
        <time>2013-12-06T09:29:50Z</time>
      </trkpt>
      <trkpt lat="48.91832" lon="2.09223">
        <ele>76.56</ele>
        <time>2013-12-06T09:30:02Z</time>
      </trkpt>
      <trkpt lat="48.91835" lon="2.09217">
        <ele>77.04</ele>
        <time>2013-12-06T09:30:06Z</time>
      </trkpt>
      <trkpt lat="48.9184" lon="2.09191">
        <ele>78</ele>
        <time>2013-12-06T09:30:19Z</time>
      </trkpt>
      <trkpt lat="48.91847" lon="2.09172">
        <ele>80.41</ele>
        <time>2013-12-06T09:30:32Z</time>
      </trkpt>
      <trkpt lat="48.91851" lon="2.09147">
        <ele>79.93</ele>
        <time>2013-12-06T09:30:49Z</time>
      </trkpt>
      <trkpt lat="48.91852" lon="2.09121">
        <ele>78.97</ele>
        <time>2013-12-06T09:31:06Z</time>
      </trkpt>
      <trkpt lat="48.91859" lon="2.09102">
        <ele>77.04</ele>
        <time>2013-12-06T09:31:21Z</time>
      </trkpt>
      <trkpt lat="48.91861" lon="2.09095">
        <ele>76.56</ele>
        <time>2013-12-06T09:31:27Z</time>
      </trkpt>
      <trkpt lat="48.91874" lon="2.09084">
        <ele>73.68</ele>
        <time>2013-12-06T09:31:40Z</time>
      </trkpt>
      <trkpt lat="48.91894" lon="2.09066">
        <ele>71.27</ele>
        <time>2013-12-06T09:31:56Z</time>
      </trkpt>
      <trkpt lat="48.91903" lon="2.09056">
        <ele>68.39</ele>
        <time>2013-12-06T09:32:14Z</time>
      </trkpt>
      <trkpt lat="48.91906" lon="2.09051">
        <ele>67.91</ele>
        <time>2013-12-06T09:32:35Z</time>
      </trkpt>
      <trkpt lat="48.91912" lon="2.09053">
        <ele>65.03</ele>
        <time>2013-12-06T09:32:43Z</time>
      </trkpt>
      <trkpt lat="48.91918" lon="2.09053">
        <ele>64.55</ele>
        <time>2013-12-06T09:32:48Z</time>
      </trkpt>
      <trkpt lat="48.91935" lon="2.09047">
        <ele>59.74</ele>
        <time>2013-12-06T09:33:03Z</time>
      </trkpt>
      <trkpt lat="48.91945" lon="2.0904">
        <ele>60.7</ele>
        <time>2013-12-06T09:33:21Z</time>
      </trkpt>
      <trkpt lat="48.91955" lon="2.09026">
        <ele>62.14</ele>
        <time>2013-12-06T09:33:36Z</time>
      </trkpt>
      <trkpt lat="48.91962" lon="2.09013">
        <ele>62.62</ele>
        <time>2013-12-06T09:33:43Z</time>
      </trkpt>
      <trkpt lat="48.91964" lon="2.09003">
        <ele>63.1</ele>
        <time>2013-12-06T09:33:47Z</time>
      </trkpt>
      <trkpt lat="48.9197" lon="2.08989">
        <ele>64.55</ele>
        <time>2013-12-06T09:33:53Z</time>
      </trkpt>
      <trkpt lat="48.91988" lon="2.08984">
        <ele>68.39</ele>
        <time>2013-12-06T09:34:06Z</time>
      </trkpt>
      <trkpt lat="48.9199" lon="2.08985">
        <ele>68.87</ele>
        <time>2013-12-06T09:34:07Z</time>
      </trkpt>
      <trkpt lat="48.91994" lon="2.0898">
        <ele>70.31</ele>
        <time>2013-12-06T09:34:16Z</time>
      </trkpt>
      <trkpt lat="48.91991" lon="2.08973">
        <ele>71.76</ele>
        <time>2013-12-06T09:34:24Z</time>
      </trkpt>
      <trkpt lat="48.91993" lon="2.08975">
        <ele>71.76</ele>
        <time>2013-12-06T09:34:27Z</time>
      </trkpt>
      <trkpt lat="48.92004" lon="2.08985">
        <ele>72.72</ele>
        <time>2013-12-06T09:34:40Z</time>
      </trkpt>
      <trkpt lat="48.92005" lon="2.08984">
        <ele>72.72</ele>
        <time>2013-12-06T09:34:41Z</time>
      </trkpt>
      <trkpt lat="48.9201" lon="2.08973">
        <ele>74.16</ele>
        <time>2013-12-06T09:34:54Z</time>
      </trkpt>
      <trkpt lat="48.92011" lon="2.08972">
        <ele>74.16</ele>
        <time>2013-12-06T09:34:55Z</time>
      </trkpt>
      <trkpt lat="48.92014" lon="2.08962">
        <ele>73.68</ele>
        <time>2013-12-06T09:35:00Z</time>
      </trkpt>
      <trkpt lat="48.92027" lon="2.08941">
        <ele>75.6</ele>
        <time>2013-12-06T09:35:10Z</time>
      </trkpt>
      <trkpt lat="48.92032" lon="2.08935">
        <ele>76.08</ele>
        <time>2013-12-06T09:35:14Z</time>
      </trkpt>
      <trkpt lat="48.92043" lon="2.08911">
        <ele>77.52</ele>
        <time>2013-12-06T09:35:28Z</time>
      </trkpt>
      <trkpt lat="48.92048" lon="2.08899">
        <ele>75.6</ele>
        <time>2013-12-06T09:35:36Z</time>
      </trkpt>
      <trkpt lat="48.92058" lon="2.0888">
        <ele>74.64</ele>
        <time>2013-12-06T09:35:50Z</time>
      </trkpt>
      <trkpt lat="48.92061" lon="2.0887">
        <ele>74.64</ele>
        <time>2013-12-06T09:35:59Z</time>
      </trkpt>
      <trkpt lat="48.92066" lon="2.08852">
        <ele>74.16</ele>
        <time>2013-12-06T09:36:15Z</time>
      </trkpt>
      <trkpt lat="48.92071" lon="2.0883">
        <ele>75.6</ele>
        <time>2013-12-06T09:36:28Z</time>
      </trkpt>
      <trkpt lat="48.92081" lon="2.08812">
        <ele>78</ele>
        <time>2013-12-06T09:36:36Z</time>
      </trkpt>
      <trkpt lat="48.92086" lon="2.08802">
        <ele>78.97</ele>
        <time>2013-12-06T09:36:40Z</time>
      </trkpt>
      <trkpt lat="48.92091" lon="2.08791">
        <ele>79.93</ele>
        <time>2013-12-06T09:36:46Z</time>
      </trkpt>
      <trkpt lat="48.921" lon="2.0877">
        <ele>79.45</ele>
        <time>2013-12-06T09:37:00Z</time>
      </trkpt>
      <trkpt lat="48.92102" lon="2.08761">
        <ele>79.93</ele>
        <time>2013-12-06T09:37:06Z</time>
      </trkpt>
      <trkpt lat="48.92113" lon="2.08736">
        <ele>80.89</ele>
        <time>2013-12-06T09:37:17Z</time>
      </trkpt>
      <trkpt lat="48.92115" lon="2.08731">
        <ele>81.37</ele>
        <time>2013-12-06T09:37:20Z</time>
      </trkpt>
      <trkpt lat="48.9212" lon="2.08716">
        <ele>81.37</ele>
        <time>2013-12-06T09:37:30Z</time>
      </trkpt>
      <trkpt lat="48.92134" lon="2.0869">
        <ele>82.33</ele>
        <time>2013-12-06T09:37:43Z</time>
      </trkpt>
      <trkpt lat="48.92138" lon="2.08686">
        <ele>82.81</ele>
        <time>2013-12-06T09:37:46Z</time>
      </trkpt>
      <trkpt lat="48.92141" lon="2.0868">
        <ele>83.77</ele>
        <time>2013-12-06T09:37:50Z</time>
      </trkpt>
      <trkpt lat="48.92147" lon="2.08656">
        <ele>85.69</ele>
        <time>2013-12-06T09:38:05Z</time>
      </trkpt>
      <trkpt lat="48.92148" lon="2.08651">
        <ele>84.73</ele>
        <time>2013-12-06T09:38:08Z</time>
      </trkpt>
      <trkpt lat="48.92153" lon="2.08639">
        <ele>83.77</ele>
        <time>2013-12-06T09:38:14Z</time>
      </trkpt>
      <trkpt lat="48.92166" lon="2.08612">
        <ele>79.93</ele>
        <time>2013-12-06T09:38:30Z</time>
      </trkpt>
      <trkpt lat="48.92171" lon="2.08597">
        <ele>78</ele>
        <time>2013-12-06T09:38:40Z</time>
      </trkpt>
      <trkpt lat="48.92184" lon="2.08575">
        <ele>77.04</ele>
        <time>2013-12-06T09:38:54Z</time>
      </trkpt>
      <trkpt lat="48.92196" lon="2.08546">
        <ele>75.12</ele>
        <time>2013-12-06T09:39:09Z</time>
      </trkpt>
      <trkpt lat="48.92206" lon="2.08527">
        <ele>69.83</ele>
        <time>2013-12-06T09:39:22Z</time>
      </trkpt>
      <trkpt lat="48.92207" lon="2.08525">
        <ele>68.87</ele>
        <time>2013-12-06T09:39:24Z</time>
      </trkpt>
      <trkpt lat="48.92209" lon="2.08522">
        <ele>68.39</ele>
        <time>2013-12-06T09:39:27Z</time>
      </trkpt>
      <trkpt lat="48.92216" lon="2.08515">
        <ele>67.43</ele>
        <time>2013-12-06T09:39:36Z</time>
      </trkpt>
      <trkpt lat="48.92218" lon="2.08516">
        <ele>67.43</ele>
        <time>2013-12-06T09:39:38Z</time>
      </trkpt>
      <trkpt lat="48.92223" lon="2.08521">
        <ele>67.43</ele>
        <time>2013-12-06T09:39:44Z</time>
      </trkpt>
      <trkpt lat="48.92236" lon="2.08528">
        <ele>65.51</ele>
        <time>2013-12-06T09:40:01Z</time>
      </trkpt>
      <trkpt lat="48.92245" lon="2.08517">
        <ele>64.55</ele>
        <time>2013-12-06T09:40:07Z</time>
      </trkpt>
      <trkpt lat="48.92252" lon="2.08507">
        <ele>64.07</ele>
        <time>2013-12-06T09:40:16Z</time>
      </trkpt>
      <trkpt lat="48.92253" lon="2.08492">
        <ele>65.03</ele>
        <time>2013-12-06T09:40:22Z</time>
      </trkpt>
      <trkpt lat="48.92249" lon="2.08473">
        <ele>65.99</ele>
        <time>2013-12-06T09:40:32Z</time>
      </trkpt>
      <trkpt lat="48.92244" lon="2.08462">
        <ele>65.99</ele>
        <time>2013-12-06T09:40:39Z</time>
      </trkpt>
      <trkpt lat="48.92241" lon="2.08456">
        <ele>65.99</ele>
        <time>2013-12-06T09:40:42Z</time>
      </trkpt>
      <trkpt lat="48.92231" lon="2.08431">
        <ele>68.87</ele>
        <time>2013-12-06T09:40:56Z</time>
      </trkpt>
      <trkpt lat="48.92232" lon="2.0843">
        <ele>67.91</ele>
        <time>2013-12-06T09:41:09Z</time>
      </trkpt>
      <trkpt lat="48.92231" lon="2.08403">
        <ele>67.91</ele>
        <time>2013-12-06T09:41:23Z</time>
      </trkpt>
      <trkpt lat="48.92234" lon="2.08365">
        <ele>69.83</ele>
        <time>2013-12-06T09:41:40Z</time>
      </trkpt>
      <trkpt lat="48.92234" lon="2.08362">
        <ele>69.83</ele>
        <time>2013-12-06T09:41:42Z</time>
      </trkpt>
      <trkpt lat="48.92235" lon="2.08347">
        <ele>69.83</ele>
        <time>2013-12-06T09:41:52Z</time>
      </trkpt>
      <trkpt lat="48.92236" lon="2.08332">
        <ele>67.91</ele>
        <time>2013-12-06T09:42:05Z</time>
      </trkpt>
      <trkpt lat="48.92236" lon="2.08324">
        <ele>66.95</ele>
        <time>2013-12-06T09:42:19Z</time>
      </trkpt>
      <trkpt lat="48.92237" lon="2.08321">
        <ele>66.47</ele>
        <time>2013-12-06T09:42:23Z</time>
      </trkpt>
      <trkpt lat="48.92246" lon="2.08274">
        <ele>65.51</ele>
        <time>2013-12-06T09:42:40Z</time>
      </trkpt>
      <trkpt lat="48.92245" lon="2.08229">
        <ele>67.91</ele>
        <time>2013-12-06T09:42:56Z</time>
      </trkpt>
      <trkpt lat="48.92246" lon="2.08204">
        <ele>66.47</ele>
        <time>2013-12-06T09:43:14Z</time>
      </trkpt>
      <trkpt lat="48.92249" lon="2.08157">
        <ele>67.43</ele>
        <time>2013-12-06T09:43:32Z</time>
      </trkpt>
      <trkpt lat="48.9225" lon="2.08137">
        <ele>69.35</ele>
        <time>2013-12-06T09:43:48Z</time>
      </trkpt>
      <trkpt lat="48.92251" lon="2.08134">
        <ele>69.35</ele>
        <time>2013-12-06T09:43:50Z</time>
      </trkpt>
      <trkpt lat="48.92258" lon="2.08083">
        <ele>68.87</ele>
        <time>2013-12-06T09:44:08Z</time>
      </trkpt>
      <trkpt lat="48.92259" lon="2.08044">
        <ele>73.2</ele>
        <time>2013-12-06T09:44:24Z</time>
      </trkpt>
      <trkpt lat="48.92257" lon="2.08039">
        <ele>72.72</ele>
        <time>2013-12-06T09:44:31Z</time>
      </trkpt>
      <trkpt lat="48.92258" lon="2.08023">
        <ele>72.72</ele>
        <time>2013-12-06T09:44:39Z</time>
      </trkpt>
      <trkpt lat="48.92259" lon="2.08">
        <ele>72.24</ele>
        <time>2013-12-06T09:44:56Z</time>
      </trkpt>
      <trkpt lat="48.92256" lon="2.0799">
        <ele>72.24</ele>
        <time>2013-12-06T09:45:17Z</time>
      </trkpt>
      <trkpt lat="48.92258" lon="2.07977">
        <ele>69.35</ele>
        <time>2013-12-06T09:45:31Z</time>
      </trkpt>
      <trkpt lat="48.92261" lon="2.07963">
        <ele>65.99</ele>
        <time>2013-12-06T09:45:44Z</time>
      </trkpt>
      <trkpt lat="48.92265" lon="2.07939">
        <ele>64.07</ele>
        <time>2013-12-06T09:45:59Z</time>
      </trkpt>
      <trkpt lat="48.92265" lon="2.07916">
        <ele>64.07</ele>
        <time>2013-12-06T09:46:19Z</time>
      </trkpt>
      <trkpt lat="48.92265" lon="2.07914">
        <ele>64.07</ele>
        <time>2013-12-06T09:46:32Z</time>
      </trkpt>
      <trkpt lat="48.92267" lon="2.07899">
        <ele>62.14</ele>
        <time>2013-12-06T09:46:48Z</time>
      </trkpt>
      <trkpt lat="48.92268" lon="2.07891">
        <ele>60.7</ele>
        <time>2013-12-06T09:47:04Z</time>
      </trkpt>
      <trkpt lat="48.92268" lon="2.07884">
        <ele>61.66</ele>
        <time>2013-12-06T09:47:19Z</time>
      </trkpt>
      <trkpt lat="48.9227" lon="2.0788">
        <ele>62.14</ele>
        <time>2013-12-06T09:47:35Z</time>
      </trkpt>
      <trkpt lat="48.92272" lon="2.07874">
        <ele>62.14</ele>
        <time>2013-12-06T09:47:55Z</time>
      </trkpt>
      <trkpt lat="48.92272" lon="2.07869">
        <ele>63.1</ele>
        <time>2013-12-06T09:48:12Z</time>
      </trkpt>
      <trkpt lat="48.92269" lon="2.07855">
        <ele>67.91</ele>
        <time>2013-12-06T09:48:35Z</time>
      </trkpt>
      <trkpt lat="48.92272" lon="2.07813">
        <ele>77.04</ele>
        <time>2013-12-06T09:48:49Z</time>
      </trkpt>
      <trkpt lat="48.92283" lon="2.07712">
        <ele>64.55</ele>
        <time>2013-12-06T09:50:35Z</time>
      </trkpt>
      <trkpt lat="48.92283" lon="2.07701">
        <ele>64.55</ele>
        <time>2013-12-06T09:50:53Z</time>
      </trkpt>
      <trkpt lat="48.92284" lon="2.07695">
        <ele>65.03</ele>
        <time>2013-12-06T09:51:13Z</time>
      </trkpt>
      <trkpt lat="48.92285" lon="2.07692">
        <ele>64.55</ele>
        <time>2013-12-06T09:51:21Z</time>
      </trkpt>
      <trkpt lat="48.9229" lon="2.07656">
        <ele>60.22</ele>
        <time>2013-12-06T09:51:41Z</time>
      </trkpt>
      <trkpt lat="48.92292" lon="2.07634">
        <ele>58.78</ele>
        <time>2013-12-06T09:51:57Z</time>
      </trkpt>
      <trkpt lat="48.92293" lon="2.07597">
        <ele>55.89</ele>
        <time>2013-12-06T09:52:14Z</time>
      </trkpt>
      <trkpt lat="48.92296" lon="2.07559">
        <ele>56.37</ele>
        <time>2013-12-06T09:52:30Z</time>
      </trkpt>
      <trkpt lat="48.92296" lon="2.0752">
        <ele>54.93</ele>
        <time>2013-12-06T09:52:50Z</time>
      </trkpt>
      <trkpt lat="48.92299" lon="2.07492">
        <ele>51.57</ele>
        <time>2013-12-06T09:53:08Z</time>
      </trkpt>
      <trkpt lat="48.92301" lon="2.07455">
        <ele>52.05</ele>
        <time>2013-12-06T09:53:28Z</time>
      </trkpt>
      <trkpt lat="48.92301" lon="2.0744">
        <ele>51.57</ele>
        <time>2013-12-06T09:53:37Z</time>
      </trkpt>
      <trkpt lat="48.92301" lon="2.07407">
        <ele>51.09</ele>
        <time>2013-12-06T09:53:53Z</time>
      </trkpt>
      <trkpt lat="48.92305" lon="2.07383">
        <ele>52.05</ele>
        <time>2013-12-06T09:54:09Z</time>
      </trkpt>
      <trkpt lat="48.92309" lon="2.07354">
        <ele>50.61</ele>
        <time>2013-12-06T09:54:25Z</time>
      </trkpt>
      <trkpt lat="48.92312" lon="2.07317">
        <ele>55.41</ele>
        <time>2013-12-06T09:54:43Z</time>
      </trkpt>
      <trkpt lat="48.92312" lon="2.07282">
        <ele>65.03</ele>
        <time>2013-12-06T09:55:01Z</time>
      </trkpt>
      <trkpt lat="48.92314" lon="2.07254">
        <ele>66.95</ele>
        <time>2013-12-06T09:55:17Z</time>
      </trkpt>
      <trkpt lat="48.92314" lon="2.07238">
        <ele>67.91</ele>
        <time>2013-12-06T09:55:27Z</time>
      </trkpt>
      <trkpt lat="48.92316" lon="2.07218">
        <ele>65.99</ele>
        <time>2013-12-06T09:55:41Z</time>
      </trkpt>
      <trkpt lat="48.92316" lon="2.07186">
        <ele>64.55</ele>
        <time>2013-12-06T09:55:57Z</time>
      </trkpt>
      <trkpt lat="48.92318" lon="2.07151">
        <ele>66.95</ele>
        <time>2013-12-06T09:56:16Z</time>
      </trkpt>
      <trkpt lat="48.92319" lon="2.0714">
        <ele>67.43</ele>
        <time>2013-12-06T09:56:22Z</time>
      </trkpt>
      <trkpt lat="48.92322" lon="2.07109">
        <ele>67.91</ele>
        <time>2013-12-06T09:56:39Z</time>
      </trkpt>
      <trkpt lat="48.92318" lon="2.07082">
        <ele>66.95</ele>
        <time>2013-12-06T09:56:55Z</time>
      </trkpt>
      <trkpt lat="48.92316" lon="2.07057">
        <ele>62.62</ele>
        <time>2013-12-06T09:57:11Z</time>
      </trkpt>
      <trkpt lat="48.92314" lon="2.07024">
        <ele>60.7</ele>
        <time>2013-12-06T09:57:29Z</time>
      </trkpt>
      <trkpt lat="48.92317" lon="2.07002">
        <ele>59.74</ele>
        <time>2013-12-06T09:57:44Z</time>
      </trkpt>
      <trkpt lat="48.92315" lon="2.06981">
        <ele>58.78</ele>
        <time>2013-12-06T09:57:58Z</time>
      </trkpt>
      <trkpt lat="48.92314" lon="2.06956">
        <ele>57.82</ele>
        <time>2013-12-06T09:58:14Z</time>
      </trkpt>
      <trkpt lat="48.92307" lon="2.0693">
        <ele>57.82</ele>
        <time>2013-12-06T09:58:28Z</time>
      </trkpt>
      <trkpt lat="48.92304" lon="2.06902">
        <ele>56.86</ele>
        <time>2013-12-06T09:58:43Z</time>
      </trkpt>
      <trkpt lat="48.92302" lon="2.06876">
        <ele>54.93</ele>
        <time>2013-12-06T09:58:58Z</time>
      </trkpt>
      <trkpt lat="48.92303" lon="2.06852">
        <ele>53.97</ele>
        <time>2013-12-06T09:59:11Z</time>
      </trkpt>
      <trkpt lat="48.92304" lon="2.06832">
        <ele>53.01</ele>
        <time>2013-12-06T09:59:22Z</time>
      </trkpt>
      <trkpt lat="48.92303" lon="2.06824">
        <ele>53.49</ele>
        <time>2013-12-06T09:59:26Z</time>
      </trkpt>
      <trkpt lat="48.92303" lon="2.06817">
        <ele>53.01</ele>
        <time>2013-12-06T09:59:29Z</time>
      </trkpt>
      <trkpt lat="48.92296" lon="2.06783">
        <ele>53.97</ele>
        <time>2013-12-06T09:59:46Z</time>
      </trkpt>
      <trkpt lat="48.92293" lon="2.06755">
        <ele>55.41</ele>
        <time>2013-12-06T10:00:01Z</time>
      </trkpt>
      <trkpt lat="48.9229" lon="2.06724">
        <ele>57.82</ele>
        <time>2013-12-06T10:00:17Z</time>
      </trkpt>
      <trkpt lat="48.92288" lon="2.06682">
        <ele>61.66</ele>
        <time>2013-12-06T10:00:38Z</time>
      </trkpt>
      <trkpt lat="48.92288" lon="2.06659">
        <ele>63.1</ele>
        <time>2013-12-06T10:00:49Z</time>
      </trkpt>
      <trkpt lat="48.92283" lon="2.06628">
        <ele>63.1</ele>
        <time>2013-12-06T10:01:06Z</time>
      </trkpt>
      <trkpt lat="48.92282" lon="2.06623">
        <ele>63.1</ele>
        <time>2013-12-06T10:01:08Z</time>
      </trkpt>
      <trkpt lat="48.92277" lon="2.06591">
        <ele>61.18</ele>
        <time>2013-12-06T10:01:25Z</time>
      </trkpt>
      <trkpt lat="48.92276" lon="2.06562">
        <ele>60.22</ele>
        <time>2013-12-06T10:01:40Z</time>
      </trkpt>
      <trkpt lat="48.92276" lon="2.06541">
        <ele>57.34</ele>
        <time>2013-12-06T10:01:53Z</time>
      </trkpt>
      <trkpt lat="48.92277" lon="2.06533">
        <ele>55.89</ele>
        <time>2013-12-06T10:01:58Z</time>
      </trkpt>
      <trkpt lat="48.92278" lon="2.06525">
        <ele>54.45</ele>
        <time>2013-12-06T10:02:02Z</time>
      </trkpt>
      <trkpt lat="48.92274" lon="2.06499">
        <ele>50.61</ele>
        <time>2013-12-06T10:02:16Z</time>
      </trkpt>
      <trkpt lat="48.9227" lon="2.06469">
        <ele>51.09</ele>
        <time>2013-12-06T10:02:31Z</time>
      </trkpt>
      <trkpt lat="48.9227" lon="2.06465">
        <ele>52.05</ele>
        <time>2013-12-06T10:02:33Z</time>
      </trkpt>
      <trkpt lat="48.9227" lon="2.06459">
        <ele>53.01</ele>
        <time>2013-12-06T10:02:36Z</time>
      </trkpt>
      <trkpt lat="48.92266" lon="2.06441">
        <ele>56.37</ele>
        <time>2013-12-06T10:02:45Z</time>
      </trkpt>
      <trkpt lat="48.92263" lon="2.06408">
        <ele>59.26</ele>
        <time>2013-12-06T10:03:02Z</time>
      </trkpt>
      <trkpt lat="48.92263" lon="2.06382">
        <ele>59.74</ele>
        <time>2013-12-06T10:03:17Z</time>
      </trkpt>
      <trkpt lat="48.92264" lon="2.06353">
        <ele>54.93</ele>
        <time>2013-12-06T10:03:33Z</time>
      </trkpt>
      <trkpt lat="48.9226" lon="2.06323">
        <ele>51.09</ele>
        <time>2013-12-06T10:03:47Z</time>
      </trkpt>
      <trkpt lat="48.92258" lon="2.06316">
        <ele>52.53</ele>
        <time>2013-12-06T10:03:53Z</time>
      </trkpt>
      <trkpt lat="48.92258" lon="2.06302">
        <ele>52.05</ele>
        <time>2013-12-06T10:04:00Z</time>
      </trkpt>
      <trkpt lat="48.92259" lon="2.06283">
        <ele>50.61</ele>
        <time>2013-12-06T10:04:10Z</time>
      </trkpt>
      <trkpt lat="48.92258" lon="2.06257">
        <ele>50.61</ele>
        <time>2013-12-06T10:04:25Z</time>
      </trkpt>
      <trkpt lat="48.92261" lon="2.06247">
        <ele>51.09</ele>
        <time>2013-12-06T10:04:33Z</time>
      </trkpt>
      <trkpt lat="48.92264" lon="2.06239">
        <ele>52.05</ele>
        <time>2013-12-06T10:04:39Z</time>
      </trkpt>
      <trkpt lat="48.92271" lon="2.06211">
        <ele>53.97</ele>
        <time>2013-12-06T10:04:55Z</time>
      </trkpt>
      <trkpt lat="48.92277" lon="2.06196">
        <ele>52.05</ele>
        <time>2013-12-06T10:05:04Z</time>
      </trkpt>
      <trkpt lat="48.92283" lon="2.06179">
        <ele>52.05</ele>
        <time>2013-12-06T10:05:12Z</time>
      </trkpt>
      <trkpt lat="48.92286" lon="2.06165">
        <ele>53.01</ele>
        <time>2013-12-06T10:05:18Z</time>
      </trkpt>
      <trkpt lat="48.92291" lon="2.06141">
        <ele>55.89</ele>
        <time>2013-12-06T10:05:30Z</time>
      </trkpt>
      <trkpt lat="48.92293" lon="2.06126">
        <ele>56.86</ele>
        <time>2013-12-06T10:05:38Z</time>
      </trkpt>
      <trkpt lat="48.92294" lon="2.06103">
        <ele>57.34</ele>
        <time>2013-12-06T10:05:51Z</time>
      </trkpt>
      <trkpt lat="48.92293" lon="2.0609">
        <ele>54.93</ele>
        <time>2013-12-06T10:05:58Z</time>
      </trkpt>
      <trkpt lat="48.92293" lon="2.06076">
        <ele>54.93</ele>
        <time>2013-12-06T10:06:05Z</time>
      </trkpt>
      <trkpt lat="48.92293" lon="2.06055">
        <ele>54.93</ele>
        <time>2013-12-06T10:06:15Z</time>
      </trkpt>
      <trkpt lat="48.92293" lon="2.06033">
        <ele>54.93</ele>
        <time>2013-12-06T10:06:29Z</time>
      </trkpt>
      <trkpt lat="48.92293" lon="2.06009">
        <ele>51.57</ele>
        <time>2013-12-06T10:06:45Z</time>
      </trkpt>
      <trkpt lat="48.92292" lon="2.05997">
        <ele>51.57</ele>
        <time>2013-12-06T10:06:53Z</time>
      </trkpt>
      <trkpt lat="48.92293" lon="2.05992">
        <ele>52.05</ele>
        <time>2013-12-06T10:06:56Z</time>
      </trkpt>
      <trkpt lat="48.9229" lon="2.05965">
        <ele>51.57</ele>
        <time>2013-12-06T10:07:10Z</time>
      </trkpt>
      <trkpt lat="48.92292" lon="2.05933">
        <ele>50.61</ele>
        <time>2013-12-06T10:07:29Z</time>
      </trkpt>
      <trkpt lat="48.92294" lon="2.05903">
        <ele>48.68</ele>
        <time>2013-12-06T10:07:46Z</time>
      </trkpt>
      <trkpt lat="48.92301" lon="2.05872">
        <ele>51.57</ele>
        <time>2013-12-06T10:08:02Z</time>
      </trkpt>
      <trkpt lat="48.92304" lon="2.05841">
        <ele>53.49</ele>
        <time>2013-12-06T10:08:14Z</time>
      </trkpt>
      <trkpt lat="48.92307" lon="2.05814">
        <ele>55.89</ele>
        <time>2013-12-06T10:08:26Z</time>
      </trkpt>
      <trkpt lat="48.92307" lon="2.05809">
        <ele>56.37</ele>
        <time>2013-12-06T10:08:29Z</time>
      </trkpt>
      <trkpt lat="48.92307" lon="2.05796">
        <ele>57.34</ele>
        <time>2013-12-06T10:08:42Z</time>
      </trkpt>
      <trkpt lat="48.92307" lon="2.05794">
        <ele>57.34</ele>
        <time>2013-12-06T10:09:02Z</time>
      </trkpt>
      <trkpt lat="48.92308" lon="2.05772">
        <ele>58.78</ele>
        <time>2013-12-06T10:09:18Z</time>
      </trkpt>
      <trkpt lat="48.92307" lon="2.05756">
        <ele>59.26</ele>
        <time>2013-12-06T10:09:33Z</time>
      </trkpt>
      <trkpt lat="48.92309" lon="2.05747">
        <ele>59.26</ele>
        <time>2013-12-06T10:09:38Z</time>
      </trkpt>
      <trkpt lat="48.92316" lon="2.05714">
        <ele>59.26</ele>
        <time>2013-12-06T10:09:52Z</time>
      </trkpt>
      <trkpt lat="48.92322" lon="2.05688">
        <ele>60.22</ele>
        <time>2013-12-06T10:10:10Z</time>
      </trkpt>
      <trkpt lat="48.92324" lon="2.05683">
        <ele>60.22</ele>
        <time>2013-12-06T10:10:14Z</time>
      </trkpt>
      <trkpt lat="48.9233" lon="2.05653">
        <ele>62.14</ele>
        <time>2013-12-06T10:10:28Z</time>
      </trkpt>
      <trkpt lat="48.92331" lon="2.05645">
        <ele>62.14</ele>
        <time>2013-12-06T10:10:33Z</time>
      </trkpt>
      <trkpt lat="48.92334" lon="2.05625">
        <ele>60.22</ele>
        <time>2013-12-06T10:10:46Z</time>
      </trkpt>
      <trkpt lat="48.92337" lon="2.05602">
        <ele>59.74</ele>
        <time>2013-12-06T10:11:02Z</time>
      </trkpt>
      <trkpt lat="48.92338" lon="2.05579">
        <ele>57.82</ele>
        <time>2013-12-06T10:11:15Z</time>
      </trkpt>
      <trkpt lat="48.92345" lon="2.05546">
        <ele>58.78</ele>
        <time>2013-12-06T10:11:29Z</time>
      </trkpt>
      <trkpt lat="48.92346" lon="2.05533">
        <ele>59.26</ele>
        <time>2013-12-06T10:11:42Z</time>
      </trkpt>
      <trkpt lat="48.92347" lon="2.05529">
        <ele>58.78</ele>
        <time>2013-12-06T10:11:49Z</time>
      </trkpt>
      <trkpt lat="48.92356" lon="2.05507">
        <ele>60.22</ele>
        <time>2013-12-06T10:12:01Z</time>
      </trkpt>
      <trkpt lat="48.92359" lon="2.05495">
        <ele>61.18</ele>
        <time>2013-12-06T10:12:06Z</time>
      </trkpt>
      <trkpt lat="48.92365" lon="2.05473">
        <ele>63.1</ele>
        <time>2013-12-06T10:12:17Z</time>
      </trkpt>
      <trkpt lat="48.92366" lon="2.05445">
        <ele>65.03</ele>
        <time>2013-12-06T10:12:31Z</time>
      </trkpt>
      <trkpt lat="48.92364" lon="2.05437">
        <ele>63.58</ele>
        <time>2013-12-06T10:12:36Z</time>
      </trkpt>
      <trkpt lat="48.92366" lon="2.0542">
        <ele>60.7</ele>
        <time>2013-12-06T10:12:51Z</time>
      </trkpt>
      <trkpt lat="48.92366" lon="2.05419">
        <ele>61.66</ele>
        <time>2013-12-06T10:13:01Z</time>
      </trkpt>
      <trkpt lat="48.92365" lon="2.05404">
        <ele>60.22</ele>
        <time>2013-12-06T10:13:08Z</time>
      </trkpt>
      <trkpt lat="48.92369" lon="2.05395">
        <ele>59.74</ele>
        <time>2013-12-06T10:13:20Z</time>
      </trkpt>
      <trkpt lat="48.92356" lon="2.05407">
        <ele>61.18</ele>
        <time>2013-12-06T10:13:35Z</time>
      </trkpt>
      <trkpt lat="48.92352" lon="2.05404">
        <ele>60.7</ele>
        <time>2013-12-06T10:13:41Z</time>
      </trkpt>
      <trkpt lat="48.92347" lon="2.05397">
        <ele>60.22</ele>
        <time>2013-12-06T10:13:46Z</time>
      </trkpt>
      <trkpt lat="48.92341" lon="2.05388">
        <ele>61.18</ele>
        <time>2013-12-06T10:13:56Z</time>
      </trkpt>
      <trkpt lat="48.92329" lon="2.05368">
        <ele>60.7</ele>
        <time>2013-12-06T10:14:11Z</time>
      </trkpt>
      <trkpt lat="48.92323" lon="2.05356">
        <ele>59.26</ele>
        <time>2013-12-06T10:14:22Z</time>
      </trkpt>
      <trkpt lat="48.92319" lon="2.05344">
        <ele>58.78</ele>
        <time>2013-12-06T10:14:29Z</time>
      </trkpt>
      <trkpt lat="48.92311" lon="2.05325">
        <ele>58.3</ele>
        <time>2013-12-06T10:14:41Z</time>
      </trkpt>
      <trkpt lat="48.92301" lon="2.053">
        <ele>56.86</ele>
        <time>2013-12-06T10:14:55Z</time>
      </trkpt>
      <trkpt lat="48.92291" lon="2.05277">
        <ele>55.41</ele>
        <time>2013-12-06T10:15:10Z</time>
      </trkpt>
      <trkpt lat="48.92284" lon="2.05267">
        <ele>54.45</ele>
        <time>2013-12-06T10:15:20Z</time>
      </trkpt>
      <trkpt lat="48.92271" lon="2.05244">
        <ele>53.97</ele>
        <time>2013-12-06T10:15:35Z</time>
      </trkpt>
      <trkpt lat="48.9226" lon="2.05223">
        <ele>58.78</ele>
        <time>2013-12-06T10:15:50Z</time>
      </trkpt>
      <trkpt lat="48.9225" lon="2.05199">
        <ele>62.62</ele>
        <time>2013-12-06T10:16:04Z</time>
      </trkpt>
      <trkpt lat="48.92247" lon="2.05195">
        <ele>63.58</ele>
        <time>2013-12-06T10:16:07Z</time>
      </trkpt>
      <trkpt lat="48.9224" lon="2.05179">
        <ele>66.47</ele>
        <time>2013-12-06T10:16:17Z</time>
      </trkpt>
      <trkpt lat="48.92234" lon="2.05167">
        <ele>66.95</ele>
        <time>2013-12-06T10:16:26Z</time>
      </trkpt>
      <trkpt lat="48.92224" lon="2.05146">
        <ele>66.47</ele>
        <time>2013-12-06T10:16:40Z</time>
      </trkpt>
      <trkpt lat="48.92217" lon="2.0514">
        <ele>65.51</ele>
        <time>2013-12-06T10:16:50Z</time>
      </trkpt>
      <trkpt lat="48.92211" lon="2.05135">
        <ele>64.07</ele>
        <time>2013-12-06T10:16:56Z</time>
      </trkpt>
      <trkpt lat="48.92199" lon="2.05112">
        <ele>62.62</ele>
        <time>2013-12-06T10:17:09Z</time>
      </trkpt>
      <trkpt lat="48.92185" lon="2.05091">
        <ele>59.74</ele>
        <time>2013-12-06T10:17:22Z</time>
      </trkpt>
      <trkpt lat="48.92173" lon="2.05078">
        <ele>56.86</ele>
        <time>2013-12-06T10:17:33Z</time>
      </trkpt>
      <trkpt lat="48.92162" lon="2.05069">
        <ele>56.86</ele>
        <time>2013-12-06T10:17:47Z</time>
      </trkpt>
      <trkpt lat="48.9215" lon="2.05062">
        <ele>55.89</ele>
        <time>2013-12-06T10:18:00Z</time>
      </trkpt>
      <trkpt lat="48.9214" lon="2.05055">
        <ele>54.45</ele>
        <time>2013-12-06T10:18:15Z</time>
      </trkpt>
      <trkpt lat="48.92131" lon="2.05049">
        <ele>49.65</ele>
        <time>2013-12-06T10:18:31Z</time>
      </trkpt>
      <trkpt lat="48.92118" lon="2.05031">
        <ele>50.61</ele>
        <time>2013-12-06T10:18:44Z</time>
      </trkpt>
      <trkpt lat="48.92105" lon="2.05016">
        <ele>48.68</ele>
        <time>2013-12-06T10:18:59Z</time>
      </trkpt>
      <trkpt lat="48.92104" lon="2.05014">
        <ele>48.68</ele>
        <time>2013-12-06T10:19:01Z</time>
      </trkpt>
      <trkpt lat="48.92085" lon="2.04994">
        <ele>49.16</ele>
        <time>2013-12-06T10:19:14Z</time>
      </trkpt>
      <trkpt lat="48.92077" lon="2.04989">
        <ele>50.61</ele>
        <time>2013-12-06T10:19:18Z</time>
      </trkpt>
      <trkpt lat="48.92064" lon="2.04983">
        <ele>52.53</ele>
        <time>2013-12-06T10:19:27Z</time>
      </trkpt>
      <trkpt lat="48.92045" lon="2.04978">
        <ele>53.97</ele>
        <time>2013-12-06T10:19:41Z</time>
      </trkpt>
      <trkpt lat="48.92034" lon="2.04974">
        <ele>55.89</ele>
        <time>2013-12-06T10:19:54Z</time>
      </trkpt>
      <trkpt lat="48.92019" lon="2.04963">
        <ele>54.93</ele>
        <time>2013-12-06T10:20:08Z</time>
      </trkpt>
      <trkpt lat="48.92" lon="2.04954">
        <ele>55.89</ele>
        <time>2013-12-06T10:20:21Z</time>
      </trkpt>
      <trkpt lat="48.91998" lon="2.04953">
        <ele>55.89</ele>
        <time>2013-12-06T10:20:22Z</time>
      </trkpt>
      <trkpt lat="48.91992" lon="2.04949">
        <ele>56.86</ele>
        <time>2013-12-06T10:20:26Z</time>
      </trkpt>
      <trkpt lat="48.9197" lon="2.04937">
        <ele>55.89</ele>
        <time>2013-12-06T10:20:42Z</time>
      </trkpt>
      <trkpt lat="48.91958" lon="2.04939">
        <ele>57.82</ele>
        <time>2013-12-06T10:20:56Z</time>
      </trkpt>
      <trkpt lat="48.91949" lon="2.0493">
        <ele>60.7</ele>
        <time>2013-12-06T10:21:09Z</time>
      </trkpt>
      <trkpt lat="48.91935" lon="2.04909">
        <ele>60.22</ele>
        <time>2013-12-06T10:21:23Z</time>
      </trkpt>
      <trkpt lat="48.91928" lon="2.04899">
        <ele>59.26</ele>
        <time>2013-12-06T10:21:29Z</time>
      </trkpt>
      <trkpt lat="48.9193" lon="2.0489">
        <ele>58.78</ele>
        <time>2013-12-06T10:21:34Z</time>
      </trkpt>
      <trkpt lat="48.91941" lon="2.04871">
        <ele>59.74</ele>
        <time>2013-12-06T10:21:48Z</time>
      </trkpt>
      <trkpt lat="48.91945" lon="2.04862">
        <ele>59.74</ele>
        <time>2013-12-06T10:21:54Z</time>
      </trkpt>
      <trkpt lat="48.91954" lon="2.04849">
        <ele>60.22</ele>
        <time>2013-12-06T10:22:08Z</time>
      </trkpt>
      <trkpt lat="48.91964" lon="2.04835">
        <ele>61.18</ele>
        <time>2013-12-06T10:22:24Z</time>
      </trkpt>
      <trkpt lat="48.91972" lon="2.04823">
        <ele>60.22</ele>
        <time>2013-12-06T10:22:38Z</time>
      </trkpt>
      <trkpt lat="48.9198" lon="2.04811">
        <ele>60.22</ele>
        <time>2013-12-06T10:22:49Z</time>
      </trkpt>
      <trkpt lat="48.91984" lon="2.04806">
        <ele>60.22</ele>
        <time>2013-12-06T10:22:53Z</time>
      </trkpt>
      <trkpt lat="48.91986" lon="2.04803">
        <ele>60.22</ele>
        <time>2013-12-06T10:22:55Z</time>
      </trkpt>
      <trkpt lat="48.91998" lon="2.04788">
        <ele>60.22</ele>
        <time>2013-12-06T10:23:05Z</time>
      </trkpt>
      <trkpt lat="48.9201" lon="2.04774">
        <ele>62.14</ele>
        <time>2013-12-06T10:23:19Z</time>
      </trkpt>
      <trkpt lat="48.92014" lon="2.04771">
        <ele>61.66</ele>
        <time>2013-12-06T10:23:24Z</time>
      </trkpt>
      <trkpt lat="48.92022" lon="2.04759">
        <ele>61.66</ele>
        <time>2013-12-06T10:23:39Z</time>
      </trkpt>
      <trkpt lat="48.92036" lon="2.04737">
        <ele>63.1</ele>
        <time>2013-12-06T10:23:52Z</time>
      </trkpt>
      <trkpt lat="48.92042" lon="2.04725">
        <ele>63.58</ele>
        <time>2013-12-06T10:24:00Z</time>
      </trkpt>
      <trkpt lat="48.9205" lon="2.04713">
        <ele>64.07</ele>
        <time>2013-12-06T10:24:14Z</time>
      </trkpt>
      <trkpt lat="48.92051" lon="2.0471">
        <ele>63.1</ele>
        <time>2013-12-06T10:24:17Z</time>
      </trkpt>
      <trkpt lat="48.92066" lon="2.0469">
        <ele>63.1</ele>
        <time>2013-12-06T10:24:30Z</time>
      </trkpt>
      <trkpt lat="48.92075" lon="2.04675">
        <ele>62.62</ele>
        <time>2013-12-06T10:24:44Z</time>
      </trkpt>
      <trkpt lat="48.92086" lon="2.04656">
        <ele>63.1</ele>
        <time>2013-12-06T10:24:59Z</time>
      </trkpt>
      <trkpt lat="48.921" lon="2.04635">
        <ele>65.03</ele>
        <time>2013-12-06T10:25:11Z</time>
      </trkpt>
      <trkpt lat="48.92108" lon="2.0462">
        <ele>67.91</ele>
        <time>2013-12-06T10:25:19Z</time>
      </trkpt>
      <trkpt lat="48.9211" lon="2.04613">
        <ele>68.87</ele>
        <time>2013-12-06T10:25:23Z</time>
      </trkpt>
      <trkpt lat="48.92114" lon="2.04605">
        <ele>69.83</ele>
        <time>2013-12-06T10:25:28Z</time>
      </trkpt>
      <trkpt lat="48.92126" lon="2.0459">
        <ele>72.24</ele>
        <time>2013-12-06T10:25:48Z</time>
      </trkpt>
      <trkpt lat="48.92139" lon="2.04567">
        <ele>70.79</ele>
        <time>2013-12-06T10:26:10Z</time>
      </trkpt>
      <trkpt lat="48.9215" lon="2.04548">
        <ele>70.79</ele>
        <time>2013-12-06T10:26:23Z</time>
      </trkpt>
      <trkpt lat="48.92155" lon="2.04544">
        <ele>70.79</ele>
        <time>2013-12-06T10:26:27Z</time>
      </trkpt>
      <trkpt lat="48.92171" lon="2.04524">
        <ele>71.27</ele>
        <time>2013-12-06T10:26:42Z</time>
      </trkpt>
      <trkpt lat="48.92184" lon="2.04499">
        <ele>72.72</ele>
        <time>2013-12-06T10:27:03Z</time>
      </trkpt>
      <trkpt lat="48.92198" lon="2.04476">
        <ele>74.16</ele>
        <time>2013-12-06T10:27:22Z</time>
      </trkpt>
      <trkpt lat="48.92216" lon="2.0445">
        <ele>70.79</ele>
        <time>2013-12-06T10:27:38Z</time>
      </trkpt>
      <trkpt lat="48.92228" lon="2.04429">
        <ele>66.95</ele>
        <time>2013-12-06T10:27:52Z</time>
      </trkpt>
      <trkpt lat="48.92229" lon="2.04427">
        <ele>65.99</ele>
        <time>2013-12-06T10:27:54Z</time>
      </trkpt>
      <trkpt lat="48.92236" lon="2.04412">
        <ele>61.66</ele>
        <time>2013-12-06T10:28:05Z</time>
      </trkpt>
      <trkpt lat="48.92246" lon="2.04402">
        <ele>60.7</ele>
        <time>2013-12-06T10:28:21Z</time>
      </trkpt>
      <trkpt lat="48.9225" lon="2.04392">
        <ele>59.26</ele>
        <time>2013-12-06T10:28:31Z</time>
      </trkpt>
      <trkpt lat="48.92255" lon="2.0438">
        <ele>57.82</ele>
        <time>2013-12-06T10:28:43Z</time>
      </trkpt>
      <trkpt lat="48.92272" lon="2.0436">
        <ele>56.86</ele>
        <time>2013-12-06T10:28:58Z</time>
      </trkpt>
      <trkpt lat="48.92276" lon="2.04357">
        <ele>57.82</ele>
        <time>2013-12-06T10:29:01Z</time>
      </trkpt>
      <trkpt lat="48.92294" lon="2.04342">
        <ele>60.22</ele>
        <time>2013-12-06T10:29:16Z</time>
      </trkpt>
      <trkpt lat="48.92313" lon="2.04336">
        <ele>60.7</ele>
        <time>2013-12-06T10:29:31Z</time>
      </trkpt>
      <trkpt lat="48.92329" lon="2.04322">
        <ele>56.37</ele>
        <time>2013-12-06T10:29:47Z</time>
      </trkpt>
      <trkpt lat="48.92343" lon="2.04312">
        <ele>57.82</ele>
        <time>2013-12-06T10:29:59Z</time>
      </trkpt>
      <trkpt lat="48.92365" lon="2.04305">
        <ele>56.86</ele>
        <time>2013-12-06T10:30:13Z</time>
      </trkpt>
      <trkpt lat="48.92379" lon="2.04292">
        <ele>57.82</ele>
        <time>2013-12-06T10:30:26Z</time>
      </trkpt>
      <trkpt lat="48.92386" lon="2.04287">
        <ele>58.3</ele>
        <time>2013-12-06T10:30:31Z</time>
      </trkpt>
      <trkpt lat="48.92409" lon="2.04271">
        <ele>58.78</ele>
        <time>2013-12-06T10:30:45Z</time>
      </trkpt>
      <trkpt lat="48.92422" lon="2.04261">
        <ele>54.45</ele>
        <time>2013-12-06T10:30:58Z</time>
      </trkpt>
      <trkpt lat="48.9243" lon="2.04252">
        <ele>44.36</ele>
        <time>2013-12-06T10:31:14Z</time>
      </trkpt>
      <trkpt lat="48.92437" lon="2.0425">
        <ele>43.88</ele>
        <time>2013-12-06T10:31:24Z</time>
      </trkpt>
      <trkpt lat="48.92437" lon="2.04251">
        <ele>43.88</ele>
        <time>2013-12-06T10:31:26Z</time>
      </trkpt>
      <trkpt lat="48.92453" lon="2.0424">
        <ele>45.32</ele>
        <time>2013-12-06T10:31:41Z</time>
      </trkpt>
      <trkpt lat="48.92466" lon="2.04231">
        <ele>49.65</ele>
        <time>2013-12-06T10:31:56Z</time>
      </trkpt>
      <trkpt lat="48.9247" lon="2.04228">
        <ele>50.13</ele>
        <time>2013-12-06T10:32:00Z</time>
      </trkpt>
      <trkpt lat="48.92474" lon="2.04225">
        <ele>50.13</ele>
        <time>2013-12-06T10:32:03Z</time>
      </trkpt>
      <trkpt lat="48.92486" lon="2.04216">
        <ele>50.61</ele>
        <time>2013-12-06T10:32:12Z</time>
      </trkpt>
      <trkpt lat="48.92494" lon="2.04213">
        <ele>50.61</ele>
        <time>2013-12-06T10:32:17Z</time>
      </trkpt>
      <trkpt lat="48.92502" lon="2.04207">
        <ele>51.09</ele>
        <time>2013-12-06T10:32:22Z</time>
      </trkpt>
      <trkpt lat="48.92523" lon="2.04189">
        <ele>49.65</ele>
        <time>2013-12-06T10:32:39Z</time>
      </trkpt>
      <trkpt lat="48.92529" lon="2.04185">
        <ele>50.13</ele>
        <time>2013-12-06T10:32:44Z</time>
      </trkpt>
      <trkpt lat="48.92532" lon="2.04177">
        <ele>51.09</ele>
        <time>2013-12-06T10:32:50Z</time>
      </trkpt>
      <trkpt lat="48.92544" lon="2.0417">
        <ele>53.01</ele>
        <time>2013-12-06T10:33:02Z</time>
      </trkpt>
      <trkpt lat="48.9255" lon="2.04163">
        <ele>49.65</ele>
        <time>2013-12-06T10:33:15Z</time>
      </trkpt>
      <trkpt lat="48.9255" lon="2.04161">
        <ele>48.2</ele>
        <time>2013-12-06T10:33:17Z</time>
      </trkpt>
      <trkpt lat="48.92551" lon="2.04142">
        <ele>43.4</ele>
        <time>2013-12-06T10:33:28Z</time>
      </trkpt>
      <trkpt lat="48.92551" lon="2.0414">
        <ele>43.4</ele>
        <time>2013-12-06T10:33:29Z</time>
      </trkpt>
      <trkpt lat="48.92551" lon="2.04134">
        <ele>42.92</ele>
        <time>2013-12-06T10:33:31Z</time>
      </trkpt>
      <trkpt lat="48.92557" lon="2.0411">
        <ele>44.84</ele>
        <time>2013-12-06T10:33:42Z</time>
      </trkpt>
      <trkpt lat="48.92558" lon="2.04108">
        <ele>45.32</ele>
        <time>2013-12-06T10:33:43Z</time>
      </trkpt>
      <trkpt lat="48.92562" lon="2.04091">
        <ele>48.2</ele>
        <time>2013-12-06T10:33:51Z</time>
      </trkpt>
      <trkpt lat="48.92567" lon="2.04077">
        <ele>49.65</ele>
        <time>2013-12-06T10:33:58Z</time>
      </trkpt>
      <trkpt lat="48.92569" lon="2.04074">
        <ele>50.13</ele>
        <time>2013-12-06T10:34:01Z</time>
      </trkpt>
      <trkpt lat="48.9257" lon="2.04068">
        <ele>49.65</ele>
        <time>2013-12-06T10:34:05Z</time>
      </trkpt>
      <trkpt lat="48.92575" lon="2.04052">
        <ele>52.05</ele>
        <time>2013-12-06T10:34:19Z</time>
      </trkpt>
      <trkpt lat="48.92576" lon="2.04044">
        <ele>52.05</ele>
        <time>2013-12-06T10:34:25Z</time>
      </trkpt>
      <trkpt lat="48.92576" lon="2.04034">
        <ele>51.09</ele>
        <time>2013-12-06T10:34:31Z</time>
      </trkpt>
      <trkpt lat="48.92584" lon="2.04013">
        <ele>46.76</ele>
        <time>2013-12-06T10:34:46Z</time>
      </trkpt>
      <trkpt lat="48.92587" lon="2.04005">
        <ele>46.28</ele>
        <time>2013-12-06T10:34:52Z</time>
      </trkpt>
      <trkpt lat="48.92588" lon="2.04001">
        <ele>46.28</ele>
        <time>2013-12-06T10:34:54Z</time>
      </trkpt>
      <trkpt lat="48.92591" lon="2.03997">
        <ele>46.28</ele>
        <time>2013-12-06T10:34:58Z</time>
      </trkpt>
      <trkpt lat="48.92597" lon="2.03978">
        <ele>48.2</ele>
        <time>2013-12-06T10:35:12Z</time>
      </trkpt>
      <trkpt lat="48.92605" lon="2.03959">
        <ele>48.68</ele>
        <time>2013-12-06T10:35:23Z</time>
      </trkpt>
      <trkpt lat="48.92608" lon="2.03944">
        <ele>48.68</ele>
        <time>2013-12-06T10:35:29Z</time>
      </trkpt>
      <trkpt lat="48.92616" lon="2.03934">
        <ele>49.65</ele>
        <time>2013-12-06T10:35:34Z</time>
      </trkpt>
      <trkpt lat="48.9263" lon="2.03906">
        <ele>49.65</ele>
        <time>2013-12-06T10:35:49Z</time>
      </trkpt>
      <trkpt lat="48.9264" lon="2.03871">
        <ele>45.8</ele>
        <time>2013-12-06T10:36:04Z</time>
      </trkpt>
      <trkpt lat="48.92641" lon="2.0387">
        <ele>45.8</ele>
        <time>2013-12-06T10:36:05Z</time>
      </trkpt>
      <trkpt lat="48.9265" lon="2.0387">
        <ele>41.95</ele>
        <time>2013-12-06T10:36:12Z</time>
      </trkpt>
      <trkpt lat="48.92659" lon="2.03884">
        <ele>39.55</ele>
        <time>2013-12-06T10:36:21Z</time>
      </trkpt>
      <trkpt lat="48.92663" lon="2.03878">
        <ele>39.55</ele>
        <time>2013-12-06T10:36:26Z</time>
      </trkpt>
      <trkpt lat="48.92667" lon="2.03874">
        <ele>39.07</ele>
        <time>2013-12-06T10:36:30Z</time>
      </trkpt>
      <trkpt lat="48.92666" lon="2.03859">
        <ele>36.67</ele>
        <time>2013-12-06T10:36:42Z</time>
      </trkpt>
      <trkpt lat="48.92669" lon="2.03853">
        <ele>34.26</ele>
        <time>2013-12-06T10:36:54Z</time>
      </trkpt>
      <trkpt lat="48.92676" lon="2.0385">
        <ele>32.34</ele>
        <time>2013-12-06T10:37:08Z</time>
      </trkpt>
      <trkpt lat="48.92677" lon="2.0385">
        <ele>31.86</ele>
        <time>2013-12-06T10:37:10Z</time>
      </trkpt>
      <trkpt lat="48.92698" lon="2.03845">
        <ele>28.5</ele>
        <time>2013-12-06T10:37:24Z</time>
      </trkpt>
      <trkpt lat="48.927" lon="2.03845">
        <ele>28.02</ele>
        <time>2013-12-06T10:37:25Z</time>
      </trkpt>
      <trkpt lat="48.92706" lon="2.03836">
        <ele>31.38</ele>
        <time>2013-12-06T10:37:33Z</time>
      </trkpt>
      <trkpt lat="48.9271" lon="2.03834">
        <ele>32.34</ele>
        <time>2013-12-06T10:37:37Z</time>
      </trkpt>
      <trkpt lat="48.92715" lon="2.03833">
        <ele>32.82</ele>
        <time>2013-12-06T10:37:41Z</time>
      </trkpt>
      <trkpt lat="48.92724" lon="2.03833">
        <ele>33.78</ele>
        <time>2013-12-06T10:37:48Z</time>
      </trkpt>
      <trkpt lat="48.92726" lon="2.03834">
        <ele>34.26</ele>
        <time>2013-12-06T10:37:50Z</time>
      </trkpt>
      <trkpt lat="48.92735" lon="2.03831">
        <ele>34.74</ele>
        <time>2013-12-06T10:37:57Z</time>
      </trkpt>
      <trkpt lat="48.92759" lon="2.0383">
        <ele>37.63</ele>
        <time>2013-12-06T10:38:13Z</time>
      </trkpt>
      <trkpt lat="48.92774" lon="2.03827">
        <ele>38.59</ele>
        <time>2013-12-06T10:38:26Z</time>
      </trkpt>
      <trkpt lat="48.92785" lon="2.03824">
        <ele>38.11</ele>
        <time>2013-12-06T10:38:39Z</time>
      </trkpt>
      <trkpt lat="48.92804" lon="2.03825">
        <ele>36.67</ele>
        <time>2013-12-06T10:38:57Z</time>
      </trkpt>
      <trkpt lat="48.92806" lon="2.03825">
        <ele>36.19</ele>
        <time>2013-12-06T10:38:59Z</time>
      </trkpt>
      <trkpt lat="48.92825" lon="2.03823">
        <ele>34.74</ele>
        <time>2013-12-06T10:39:15Z</time>
      </trkpt>
      <trkpt lat="48.92836" lon="2.03821">
        <ele>33.78</ele>
        <time>2013-12-06T10:39:28Z</time>
      </trkpt>
      <trkpt lat="48.92844" lon="2.03811">
        <ele>33.78</ele>
        <time>2013-12-06T10:39:44Z</time>
      </trkpt>
      <trkpt lat="48.92851" lon="2.03812">
        <ele>34.26</ele>
        <time>2013-12-06T10:39:58Z</time>
      </trkpt>
      <trkpt lat="48.92859" lon="2.03816">
        <ele>30.9</ele>
        <time>2013-12-06T10:40:12Z</time>
      </trkpt>
      <trkpt lat="48.92864" lon="2.03815">
        <ele>30.42</ele>
        <time>2013-12-06T10:40:24Z</time>
      </trkpt>
      <trkpt lat="48.92872" lon="2.03815">
        <ele>30.42</ele>
        <time>2013-12-06T10:40:36Z</time>
      </trkpt>
      <trkpt lat="48.92882" lon="2.03809">
        <ele>28.98</ele>
        <time>2013-12-06T10:40:49Z</time>
      </trkpt>
      <trkpt lat="48.92902" lon="2.03798">
        <ele>26.09</ele>
        <time>2013-12-06T10:41:05Z</time>
      </trkpt>
      <trkpt lat="48.92906" lon="2.03796">
        <ele>26.09</ele>
        <time>2013-12-06T10:41:08Z</time>
      </trkpt>
      <trkpt lat="48.92922" lon="2.03775">
        <ele>29.94</ele>
        <time>2013-12-06T10:41:26Z</time>
      </trkpt>
      <trkpt lat="48.9293" lon="2.03765">
        <ele>30.9</ele>
        <time>2013-12-06T10:41:34Z</time>
      </trkpt>
      <trkpt lat="48.92937" lon="2.03764">
        <ele>29.94</ele>
        <time>2013-12-06T10:41:49Z</time>
      </trkpt>
      <trkpt lat="48.92946" lon="2.03763">
        <ele>29.46</ele>
        <time>2013-12-06T10:42:03Z</time>
      </trkpt>
      <trkpt lat="48.92956" lon="2.03782">
        <ele>26.09</ele>
        <time>2013-12-06T10:42:19Z</time>
      </trkpt>
      <trkpt lat="48.92965" lon="2.03813">
        <ele>24.17</ele>
        <time>2013-12-06T10:42:37Z</time>
      </trkpt>
      <trkpt lat="48.92981" lon="2.0384">
        <ele>20.32</ele>
        <time>2013-12-06T10:42:56Z</time>
      </trkpt>
      <trkpt lat="48.92984" lon="2.03858">
        <ele>19.36</ele>
        <time>2013-12-06T10:43:12Z</time>
      </trkpt>
      <trkpt lat="48.92984" lon="2.03859">
        <ele>21.29</ele>
        <time>2013-12-06T10:43:23Z</time>
      </trkpt>
      <trkpt lat="48.92994" lon="2.03872">
        <ele>20.81</ele>
        <time>2013-12-06T10:43:39Z</time>
      </trkpt>
      <trkpt lat="48.92998" lon="2.0389">
        <ele>21.29</ele>
        <time>2013-12-06T10:43:54Z</time>
      </trkpt>
      <trkpt lat="48.93" lon="2.03919">
        <ele>29.46</ele>
        <time>2013-12-06T10:53:08Z</time>
      </trkpt>
      <trkpt lat="48.92996" lon="2.03897">
        <ele>28.98</ele>
        <time>2013-12-06T10:53:24Z</time>
      </trkpt>
      <trkpt lat="48.92986" lon="2.03869">
        <ele>29.94</ele>
        <time>2013-12-06T10:53:39Z</time>
      </trkpt>
      <trkpt lat="48.92976" lon="2.03833">
        <ele>27.05</ele>
        <time>2013-12-06T10:53:54Z</time>
      </trkpt>
      <trkpt lat="48.92976" lon="2.03831">
        <ele>27.05</ele>
        <time>2013-12-06T10:53:55Z</time>
      </trkpt>
      <trkpt lat="48.92978" lon="2.0382">
        <ele>27.05</ele>
        <time>2013-12-06T10:54:04Z</time>
      </trkpt>
      <trkpt lat="48.92984" lon="2.03852">
        <ele>27.05</ele>
        <time>2013-12-06T10:55:23Z</time>
      </trkpt>
      <trkpt lat="48.9297" lon="2.0383">
        <ele>49.65</ele>
        <time>2013-12-06T10:55:36Z</time>
      </trkpt>
      <trkpt lat="48.92961" lon="2.03802">
        <ele>39.07</ele>
        <time>2013-12-06T10:55:54Z</time>
      </trkpt>
      <trkpt lat="48.92952" lon="2.03787">
        <ele>36.19</ele>
        <time>2013-12-06T10:56:07Z</time>
      </trkpt>
      <trkpt lat="48.92934" lon="2.03777">
        <ele>30.9</ele>
        <time>2013-12-06T10:56:22Z</time>
      </trkpt>
      <trkpt lat="48.92931" lon="2.03766">
        <ele>28.5</ele>
        <time>2013-12-06T10:56:28Z</time>
      </trkpt>
      <trkpt lat="48.92933" lon="2.03758">
        <ele>27.53</ele>
        <time>2013-12-06T10:56:32Z</time>
      </trkpt>
      <trkpt lat="48.92947" lon="2.03736">
        <ele>21.77</ele>
        <time>2013-12-06T10:56:49Z</time>
      </trkpt>
      <trkpt lat="48.92948" lon="2.03735">
        <ele>21.77</ele>
        <time>2013-12-06T10:56:50Z</time>
      </trkpt>
      <trkpt lat="48.92962" lon="2.03719">
        <ele>21.77</ele>
        <time>2013-12-06T10:57:06Z</time>
      </trkpt>
      <trkpt lat="48.92969" lon="2.03708">
        <ele>19.84</ele>
        <time>2013-12-06T10:57:20Z</time>
      </trkpt>
      <trkpt lat="48.92971" lon="2.03691">
        <ele>14.56</ele>
        <time>2013-12-06T10:57:36Z</time>
      </trkpt>
      <trkpt lat="48.92969" lon="2.03659">
        <ele>6.39</ele>
        <time>2013-12-06T10:57:52Z</time>
      </trkpt>
      <trkpt lat="48.92967" lon="2.03634">
        <ele>3.02</ele>
        <time>2013-12-06T10:58:01Z</time>
      </trkpt>
      <trkpt lat="48.92969" lon="2.03611">
        <ele>3.98</ele>
        <time>2013-12-06T10:58:09Z</time>
      </trkpt>
      <trkpt lat="48.92969" lon="2.03595">
        <ele>5.91</ele>
        <time>2013-12-06T10:58:15Z</time>
      </trkpt>
      <trkpt lat="48.92969" lon="2.03589">
        <ele>6.39</ele>
        <time>2013-12-06T10:58:18Z</time>
      </trkpt>
      <trkpt lat="48.92971" lon="2.03574">
        <ele>5.91</ele>
        <time>2013-12-06T10:58:27Z</time>
      </trkpt>
      <trkpt lat="48.92973" lon="2.03551">
        <ele>6.87</ele>
        <time>2013-12-06T10:58:41Z</time>
      </trkpt>
      <trkpt lat="48.92973" lon="2.03544">
        <ele>6.39</ele>
        <time>2013-12-06T10:58:45Z</time>
      </trkpt>
      <trkpt lat="48.92971" lon="2.03514">
        <ele>8.31</ele>
        <time>2013-12-06T10:58:57Z</time>
      </trkpt>
      <trkpt lat="48.92969" lon="2.0351">
        <ele>8.79</ele>
        <time>2013-12-06T10:58:59Z</time>
      </trkpt>
      <trkpt lat="48.92955" lon="2.03481">
        <ele>16</ele>
        <time>2013-12-06T10:59:15Z</time>
      </trkpt>
      <trkpt lat="48.92954" lon="2.03471">
        <ele>17.44</ele>
        <time>2013-12-06T10:59:30Z</time>
      </trkpt>
      <trkpt lat="48.92954" lon="2.03471">
        <ele>17.44</ele>
        <time>2013-12-06T10:59:31Z</time>
      </trkpt>
      <trkpt lat="48.92938" lon="2.03441">
        <ele>19.84</ele>
        <time>2013-12-06T10:59:52Z</time>
      </trkpt>
      <trkpt lat="48.92927" lon="2.03428">
        <ele>16.48</ele>
        <time>2013-12-06T11:00:08Z</time>
      </trkpt>
      <trkpt lat="48.92919" lon="2.03412">
        <ele>14.56</ele>
        <time>2013-12-06T11:00:21Z</time>
      </trkpt>
      <trkpt lat="48.92907" lon="2.03386">
        <ele>14.56</ele>
        <time>2013-12-06T11:00:35Z</time>
      </trkpt>
      <trkpt lat="48.929" lon="2.03363">
        <ele>13.6</ele>
        <time>2013-12-06T11:00:51Z</time>
      </trkpt>
      <trkpt lat="48.92898" lon="2.03358">
        <ele>14.56</ele>
        <time>2013-12-06T11:01:01Z</time>
      </trkpt>
      <trkpt lat="48.929" lon="2.03345">
        <ele>16.48</ele>
        <time>2013-12-06T11:01:13Z</time>
      </trkpt>
      <trkpt lat="48.92897" lon="2.0333">
        <ele>16</ele>
        <time>2013-12-06T11:01:25Z</time>
      </trkpt>
      <trkpt lat="48.92894" lon="2.03319">
        <ele>16.96</ele>
        <time>2013-12-06T11:01:39Z</time>
      </trkpt>
      <trkpt lat="48.92881" lon="2.03298">
        <ele>18.88</ele>
        <time>2013-12-06T11:01:51Z</time>
      </trkpt>
      <trkpt lat="48.92863" lon="2.03282">
        <ele>19.84</ele>
        <time>2013-12-06T11:02:08Z</time>
      </trkpt>
      <trkpt lat="48.92861" lon="2.03281">
        <ele>20.32</ele>
        <time>2013-12-06T11:02:13Z</time>
      </trkpt>
      <trkpt lat="48.9284" lon="2.03271">
        <ele>20.81</ele>
        <time>2013-12-06T11:02:26Z</time>
      </trkpt>
      <trkpt lat="48.92815" lon="2.0324">
        <ele>19.84</ele>
        <time>2013-12-06T11:02:41Z</time>
      </trkpt>
      <trkpt lat="48.92816" lon="2.03226">
        <ele>19.84</ele>
        <time>2013-12-06T11:02:54Z</time>
      </trkpt>
      <trkpt lat="48.92814" lon="2.03195">
        <ele>19.36</ele>
        <time>2013-12-06T11:03:16Z</time>
      </trkpt>
      <trkpt lat="48.92814" lon="2.03193">
        <ele>19.36</ele>
        <time>2013-12-06T11:03:17Z</time>
      </trkpt>
      <trkpt lat="48.9281" lon="2.03161">
        <ele>18.88</ele>
        <time>2013-12-06T11:03:33Z</time>
      </trkpt>
      <trkpt lat="48.92811" lon="2.03162">
        <ele>17.92</ele>
        <time>2013-12-06T11:03:53Z</time>
      </trkpt>
      <trkpt lat="48.9281" lon="2.03162">
        <ele>17.92</ele>
        <time>2013-12-06T11:04:19Z</time>
      </trkpt>
      <trkpt lat="48.9281" lon="2.03161">
        <ele>18.88</ele>
        <time>2013-12-06T11:04:49Z</time>
      </trkpt>
      <trkpt lat="48.9281" lon="2.03161">
        <ele>20.32</ele>
        <time>2013-12-06T11:05:20Z</time>
      </trkpt>
      <trkpt lat="48.9281" lon="2.0316">
        <ele>20.32</ele>
        <time>2013-12-06T11:05:50Z</time>
      </trkpt>
      <trkpt lat="48.92809" lon="2.03159">
        <ele>20.32</ele>
        <time>2013-12-06T11:06:21Z</time>
      </trkpt>
      <trkpt lat="48.92809" lon="2.03158">
        <ele>20.32</ele>
        <time>2013-12-06T11:07:03Z</time>
      </trkpt>
      <trkpt lat="48.92809" lon="2.03158">
        <ele>22.25</ele>
        <time>2013-12-06T11:07:39Z</time>
      </trkpt>
      <trkpt lat="48.92809" lon="2.03157">
        <ele>21.77</ele>
        <time>2013-12-06T11:08:13Z</time>
      </trkpt>
      <trkpt lat="48.92809" lon="2.03156">
        <ele>22.25</ele>
        <time>2013-12-06T11:08:55Z</time>
      </trkpt>
      <trkpt lat="48.92808" lon="2.03156">
        <ele>21.77</ele>
        <time>2013-12-06T11:09:32Z</time>
      </trkpt>
      <trkpt lat="48.92808" lon="2.03155">
        <ele>21.77</ele>
        <time>2013-12-06T11:10:14Z</time>
      </trkpt>
      <trkpt lat="48.92808" lon="2.03154">
        <ele>21.29</ele>
        <time>2013-12-06T11:10:38Z</time>
      </trkpt>
      <trkpt lat="48.92806" lon="2.0315">
        <ele>19.84</ele>
        <time>2013-12-06T11:11:27Z</time>
      </trkpt>
      <trkpt lat="48.92805" lon="2.0315">
        <ele>17.44</ele>
        <time>2013-12-06T11:12:04Z</time>
      </trkpt>
      <trkpt lat="48.92805" lon="2.0315">
        <ele>16.96</ele>
        <time>2013-12-06T11:12:48Z</time>
      </trkpt>
      <trkpt lat="48.92804" lon="2.03149">
        <ele>16.48</ele>
        <time>2013-12-06T11:13:37Z</time>
      </trkpt>
      <trkpt lat="48.92804" lon="2.0315">
        <ele>16</ele>
        <time>2013-12-06T11:14:11Z</time>
      </trkpt>
      <trkpt lat="48.92803" lon="2.0315">
        <ele>16.48</ele>
        <time>2013-12-06T11:14:36Z</time>
      </trkpt>
      <trkpt lat="48.92803" lon="2.0315">
        <ele>17.92</ele>
        <time>2013-12-06T11:15:12Z</time>
      </trkpt>
      <trkpt lat="48.92802" lon="2.03151">
        <ele>17.92</ele>
        <time>2013-12-06T11:15:44Z</time>
      </trkpt>
      <trkpt lat="48.92802" lon="2.03149">
        <ele>20.32</ele>
        <time>2013-12-06T11:16:27Z</time>
      </trkpt>
      <trkpt lat="48.92802" lon="2.03148">
        <ele>20.81</ele>
        <time>2013-12-06T11:17:10Z</time>
      </trkpt>
      <trkpt lat="48.92803" lon="2.03149">
        <ele>21.29</ele>
        <time>2013-12-06T11:17:36Z</time>
      </trkpt>
      <trkpt lat="48.92803" lon="2.03149">
        <ele>21.29</ele>
        <time>2013-12-06T11:18:01Z</time>
      </trkpt>
      <trkpt lat="48.92803" lon="2.03146">
        <ele>19.84</ele>
        <time>2013-12-06T11:18:17Z</time>
      </trkpt>
      <trkpt lat="48.92804" lon="2.03149">
        <ele>18.88</ele>
        <time>2013-12-06T11:18:31Z</time>
      </trkpt>
      <trkpt lat="48.92809" lon="2.03161">
        <ele>16.48</ele>
        <time>2013-12-06T11:18:45Z</time>
      </trkpt>
      <trkpt lat="48.9281" lon="2.03174">
        <ele>16.48</ele>
        <time>2013-12-06T11:18:53Z</time>
      </trkpt>
      <trkpt lat="48.9282" lon="2.03174">
        <ele>16.96</ele>
        <time>2013-12-06T11:19:02Z</time>
      </trkpt>
      <trkpt lat="48.92826" lon="2.0317">
        <ele>16.48</ele>
        <time>2013-12-06T11:19:09Z</time>
      </trkpt>
      <trkpt lat="48.92843" lon="2.03161">
        <ele>13.12</ele>
        <time>2013-12-06T11:19:26Z</time>
      </trkpt>
      <trkpt lat="48.92846" lon="2.03143">
        <ele>12.63</ele>
        <time>2013-12-06T11:19:41Z</time>
      </trkpt>
      <trkpt lat="48.92845" lon="2.03141">
        <ele>13.12</ele>
        <time>2013-12-06T11:19:43Z</time>
      </trkpt>
      <trkpt lat="48.92839" lon="2.03117">
        <ele>13.12</ele>
        <time>2013-12-06T11:19:59Z</time>
      </trkpt>
      <trkpt lat="48.92848" lon="2.03107">
        <ele>15.04</ele>
        <time>2013-12-06T11:20:13Z</time>
      </trkpt>
      <trkpt lat="48.92852" lon="2.03106">
        <ele>15.52</ele>
        <time>2013-12-06T11:20:26Z</time>
      </trkpt>
      <trkpt lat="48.92856" lon="2.03104">
        <ele>14.56</ele>
        <time>2013-12-06T11:20:47Z</time>
      </trkpt>
      <trkpt lat="48.92858" lon="2.03105">
        <ele>14.56</ele>
        <time>2013-12-06T11:20:49Z</time>
      </trkpt>
      <trkpt lat="48.92874" lon="2.03131">
        <ele>14.56</ele>
        <time>2013-12-06T11:21:07Z</time>
      </trkpt>
      <trkpt lat="48.92886" lon="2.03157">
        <ele>13.12</ele>
        <time>2013-12-06T11:21:23Z</time>
      </trkpt>
      <trkpt lat="48.92888" lon="2.03162">
        <ele>13.6</ele>
        <time>2013-12-06T11:21:26Z</time>
      </trkpt>
      <trkpt lat="48.92898" lon="2.03192">
        <ele>10.71</ele>
        <time>2013-12-06T11:21:44Z</time>
      </trkpt>
      <trkpt lat="48.92911" lon="2.03216">
        <ele>11.67</ele>
        <time>2013-12-06T11:22:00Z</time>
      </trkpt>
      <trkpt lat="48.92931" lon="2.03234">
        <ele>12.63</ele>
        <time>2013-12-06T11:22:17Z</time>
      </trkpt>
      <trkpt lat="48.92935" lon="2.03233">
        <ele>12.15</ele>
        <time>2013-12-06T11:22:22Z</time>
      </trkpt>
      <trkpt lat="48.92947" lon="2.03219">
        <ele>11.67</ele>
        <time>2013-12-06T11:22:38Z</time>
      </trkpt>
      <trkpt lat="48.92957" lon="2.03196">
        <ele>14.56</ele>
        <time>2013-12-06T11:22:51Z</time>
      </trkpt>
      <trkpt lat="48.92947" lon="2.03172">
        <ele>14.56</ele>
        <time>2013-12-06T11:23:08Z</time>
      </trkpt>
      <trkpt lat="48.92945" lon="2.03167">
        <ele>14.08</ele>
        <time>2013-12-06T11:23:12Z</time>
      </trkpt>
      <trkpt lat="48.92935" lon="2.03144">
        <ele>16</ele>
        <time>2013-12-06T11:23:27Z</time>
      </trkpt>
      <trkpt lat="48.92926" lon="2.0312">
        <ele>16.96</ele>
        <time>2013-12-06T11:23:42Z</time>
      </trkpt>
      <trkpt lat="48.92916" lon="2.03096">
        <ele>16.48</ele>
        <time>2013-12-06T11:23:56Z</time>
      </trkpt>
      <trkpt lat="48.92905" lon="2.0307">
        <ele>16.48</ele>
        <time>2013-12-06T11:24:12Z</time>
      </trkpt>
      <trkpt lat="48.92902" lon="2.03056">
        <ele>17.44</ele>
        <time>2013-12-06T11:24:24Z</time>
      </trkpt>
      <trkpt lat="48.92892" lon="2.03025">
        <ele>18.88</ele>
        <time>2013-12-06T11:24:41Z</time>
      </trkpt>
      <trkpt lat="48.92888" lon="2.0301">
        <ele>19.84</ele>
        <time>2013-12-06T11:24:50Z</time>
      </trkpt>
      <trkpt lat="48.92882" lon="2.02992">
        <ele>19.84</ele>
        <time>2013-12-06T11:25:03Z</time>
      </trkpt>
      <trkpt lat="48.92876" lon="2.02968">
        <ele>18.4</ele>
        <time>2013-12-06T11:25:17Z</time>
      </trkpt>
      <trkpt lat="48.92871" lon="2.02943">
        <ele>18.4</ele>
        <time>2013-12-06T11:25:32Z</time>
      </trkpt>
      <trkpt lat="48.92865" lon="2.02916">
        <ele>17.92</ele>
        <time>2013-12-06T11:25:46Z</time>
      </trkpt>
      <trkpt lat="48.92855" lon="2.02885">
        <ele>17.92</ele>
        <time>2013-12-06T11:26:01Z</time>
      </trkpt>
      <trkpt lat="48.92847" lon="2.02857">
        <ele>16.96</ele>
        <time>2013-12-06T11:26:16Z</time>
      </trkpt>
      <trkpt lat="48.92843" lon="2.02843">
        <ele>16.96</ele>
        <time>2013-12-06T11:26:28Z</time>
      </trkpt>
      <trkpt lat="48.92837" lon="2.02813">
        <ele>20.81</ele>
        <time>2013-12-06T11:26:43Z</time>
      </trkpt>
      <trkpt lat="48.92833" lon="2.02783">
        <ele>22.73</ele>
        <time>2013-12-06T11:26:58Z</time>
      </trkpt>
      <trkpt lat="48.92837" lon="2.0277">
        <ele>22.73</ele>
        <time>2013-12-06T11:27:09Z</time>
      </trkpt>
      <trkpt lat="48.9284" lon="2.02768">
        <ele>23.21</ele>
        <time>2013-12-06T11:27:28Z</time>
      </trkpt>
      <trkpt lat="48.92836" lon="2.02771">
        <ele>19.84</ele>
        <time>2013-12-06T11:27:33Z</time>
      </trkpt>
      <trkpt lat="48.92838" lon="2.02777">
        <ele>16</ele>
        <time>2013-12-06T11:27:45Z</time>
      </trkpt>
      <trkpt lat="48.92837" lon="2.02779">
        <ele>16</ele>
        <time>2013-12-06T11:27:53Z</time>
      </trkpt>
      <trkpt lat="48.92824" lon="2.02757">
        <ele>15.52</ele>
        <time>2013-12-06T11:28:09Z</time>
      </trkpt>
      <trkpt lat="48.92818" lon="2.02731">
        <ele>12.15</ele>
        <time>2013-12-06T11:28:23Z</time>
      </trkpt>
      <trkpt lat="48.92816" lon="2.0271">
        <ele>9.27</ele>
        <time>2013-12-06T11:28:36Z</time>
      </trkpt>
      <trkpt lat="48.92813" lon="2.02685">
        <ele>5.91</ele>
        <time>2013-12-06T11:28:50Z</time>
      </trkpt>
      <trkpt lat="48.92812" lon="2.02661">
        <ele>6.87</ele>
        <time>2013-12-06T11:29:03Z</time>
      </trkpt>
      <trkpt lat="48.92811" lon="2.02656">
        <ele>6.87</ele>
        <time>2013-12-06T11:29:11Z</time>
      </trkpt>
      <trkpt lat="48.92803" lon="2.02629">
        <ele>7.83</ele>
        <time>2013-12-06T11:29:27Z</time>
      </trkpt>
      <trkpt lat="48.92802" lon="2.02622">
        <ele>7.83</ele>
        <time>2013-12-06T11:29:32Z</time>
      </trkpt>
      <trkpt lat="48.92798" lon="2.02593">
        <ele>8.79</ele>
        <time>2013-12-06T11:29:48Z</time>
      </trkpt>
      <trkpt lat="48.92794" lon="2.02563">
        <ele>7.83</ele>
        <time>2013-12-06T11:30:04Z</time>
      </trkpt>
      <trkpt lat="48.92792" lon="2.02532">
        <ele>4.46</ele>
        <time>2013-12-06T11:30:20Z</time>
      </trkpt>
      <trkpt lat="48.9279" lon="2.02502">
        <ele>3.98</ele>
        <time>2013-12-06T11:30:37Z</time>
      </trkpt>
      <trkpt lat="48.92788" lon="2.0247">
        <ele>7.35</ele>
        <time>2013-12-06T11:30:52Z</time>
      </trkpt>
      <trkpt lat="48.92788" lon="2.0244">
        <ele>12.63</ele>
        <time>2013-12-06T11:31:06Z</time>
      </trkpt>
      <trkpt lat="48.9279" lon="2.02418">
        <ele>15.04</ele>
        <time>2013-12-06T11:31:20Z</time>
      </trkpt>
      <trkpt lat="48.9279" lon="2.02412">
        <ele>16</ele>
        <time>2013-12-06T11:31:23Z</time>
      </trkpt>
      <trkpt lat="48.92791" lon="2.02387">
        <ele>17.44</ele>
        <time>2013-12-06T11:31:39Z</time>
      </trkpt>
      <trkpt lat="48.92793" lon="2.02362">
        <ele>16</ele>
        <time>2013-12-06T11:31:53Z</time>
      </trkpt>
      <trkpt lat="48.92794" lon="2.02329">
        <ele>11.67</ele>
        <time>2013-12-06T11:32:11Z</time>
      </trkpt>
      <trkpt lat="48.92793" lon="2.023">
        <ele>14.08</ele>
        <time>2013-12-06T11:32:25Z</time>
      </trkpt>
      <trkpt lat="48.92793" lon="2.02273">
        <ele>14.56</ele>
        <time>2013-12-06T11:32:39Z</time>
      </trkpt>
      <trkpt lat="48.92788" lon="2.02238">
        <ele>14.56</ele>
        <time>2013-12-06T11:32:57Z</time>
      </trkpt>
      <trkpt lat="48.92787" lon="2.0221">
        <ele>15.04</ele>
        <time>2013-12-06T11:33:14Z</time>
      </trkpt>
      <trkpt lat="48.92788" lon="2.02202">
        <ele>16</ele>
        <time>2013-12-06T11:33:18Z</time>
      </trkpt>
      <trkpt lat="48.92787" lon="2.02193">
        <ele>16.96</ele>
        <time>2013-12-06T11:33:22Z</time>
      </trkpt>
      <trkpt lat="48.92786" lon="2.0216">
        <ele>17.92</ele>
        <time>2013-12-06T11:33:40Z</time>
      </trkpt>
      <trkpt lat="48.92786" lon="2.0213">
        <ele>15.52</ele>
        <time>2013-12-06T11:33:55Z</time>
      </trkpt>
      <trkpt lat="48.92786" lon="2.02122">
        <ele>17.44</ele>
        <time>2013-12-06T11:34:12Z</time>
      </trkpt>
      <trkpt lat="48.92781" lon="2.02112">
        <ele>14.08</ele>
        <time>2013-12-06T11:34:24Z</time>
      </trkpt>
      <trkpt lat="48.92779" lon="2.02084">
        <ele>9.75</ele>
        <time>2013-12-06T11:34:39Z</time>
      </trkpt>
      <trkpt lat="48.92777" lon="2.02078">
        <ele>9.27</ele>
        <time>2013-12-06T11:34:42Z</time>
      </trkpt>
      <trkpt lat="48.92778" lon="2.02055">
        <ele>6.87</ele>
        <time>2013-12-06T11:34:54Z</time>
      </trkpt>
      <trkpt lat="48.92777" lon="2.02038">
        <ele>4.46</ele>
        <time>2013-12-06T11:35:03Z</time>
      </trkpt>
      <trkpt lat="48.92778" lon="2.02016">
        <ele>6.87</ele>
        <time>2013-12-06T11:35:19Z</time>
      </trkpt>
      <trkpt lat="48.92778" lon="2.01994">
        <ele>7.83</ele>
        <time>2013-12-06T11:35:32Z</time>
      </trkpt>
      <trkpt lat="48.92781" lon="2.0198">
        <ele>8.31</ele>
        <time>2013-12-06T11:35:50Z</time>
      </trkpt>
      <trkpt lat="48.92781" lon="2.01955">
        <ele>6.87</ele>
        <time>2013-12-06T11:36:05Z</time>
      </trkpt>
      <trkpt lat="48.92781" lon="2.01943">
        <ele>6.87</ele>
        <time>2013-12-06T11:36:11Z</time>
      </trkpt>
      <trkpt lat="48.92781" lon="2.01912">
        <ele>10.71</ele>
        <time>2013-12-06T11:36:26Z</time>
      </trkpt>
      <trkpt lat="48.92782" lon="2.01897">
        <ele>13.6</ele>
        <time>2013-12-06T11:36:35Z</time>
      </trkpt>
      <trkpt lat="48.92786" lon="2.01865">
        <ele>16.48</ele>
        <time>2013-12-06T11:36:51Z</time>
      </trkpt>
      <trkpt lat="48.9279" lon="2.01826">
        <ele>16</ele>
        <time>2013-12-06T11:37:10Z</time>
      </trkpt>
      <trkpt lat="48.92793" lon="2.01803">
        <ele>14.08</ele>
        <time>2013-12-06T11:37:23Z</time>
      </trkpt>
      <trkpt lat="48.92794" lon="2.01778">
        <ele>13.6</ele>
        <time>2013-12-06T11:37:37Z</time>
      </trkpt>
      <trkpt lat="48.92793" lon="2.01772">
        <ele>14.56</ele>
        <time>2013-12-06T11:37:55Z</time>
      </trkpt>
      <trkpt lat="48.92793" lon="2.01766">
        <ele>14.08</ele>
        <time>2013-12-06T11:38:15Z</time>
      </trkpt>
      <trkpt lat="48.92798" lon="2.01738">
        <ele>15.04</ele>
        <time>2013-12-06T11:38:28Z</time>
      </trkpt>
      <trkpt lat="48.92802" lon="2.01712">
        <ele>12.15</ele>
        <time>2013-12-06T11:38:41Z</time>
      </trkpt>
      <trkpt lat="48.92805" lon="2.017">
        <ele>10.71</ele>
        <time>2013-12-06T11:38:50Z</time>
      </trkpt>
      <trkpt lat="48.92807" lon="2.01669">
        <ele>12.63</ele>
        <time>2013-12-06T11:39:05Z</time>
      </trkpt>
      <trkpt lat="48.92812" lon="2.01648">
        <ele>11.67</ele>
        <time>2013-12-06T11:39:16Z</time>
      </trkpt>
      <trkpt lat="48.92821" lon="2.01619">
        <ele>12.63</ele>
        <time>2013-12-06T11:39:32Z</time>
      </trkpt>
      <trkpt lat="48.92827" lon="2.01587">
        <ele>12.63</ele>
        <time>2013-12-06T11:39:50Z</time>
      </trkpt>
      <trkpt lat="48.92831" lon="2.01557">
        <ele>8.31</ele>
        <time>2013-12-06T11:40:08Z</time>
      </trkpt>
      <trkpt lat="48.92831" lon="2.01554">
        <ele>8.31</ele>
        <time>2013-12-06T11:40:10Z</time>
      </trkpt>
      <trkpt lat="48.92839" lon="2.01526">
        <ele>8.31</ele>
        <time>2013-12-06T11:40:28Z</time>
      </trkpt>
      <trkpt lat="48.92845" lon="2.01509">
        <ele>10.71</ele>
        <time>2013-12-06T11:40:38Z</time>
      </trkpt>
      <trkpt lat="48.92855" lon="2.01476">
        <ele>13.6</ele>
        <time>2013-12-06T11:40:54Z</time>
      </trkpt>
      <trkpt lat="48.9286" lon="2.01461">
        <ele>16.48</ele>
        <time>2013-12-06T11:41:03Z</time>
      </trkpt>
      <trkpt lat="48.92866" lon="2.01436">
        <ele>15.52</ele>
        <time>2013-12-06T11:41:20Z</time>
      </trkpt>
      <trkpt lat="48.92872" lon="2.01407">
        <ele>14.08</ele>
        <time>2013-12-06T11:41:38Z</time>
      </trkpt>
      <trkpt lat="48.92878" lon="2.01381">
        <ele>11.19</ele>
        <time>2013-12-06T11:41:53Z</time>
      </trkpt>
      <trkpt lat="48.9288" lon="2.01373">
        <ele>10.23</ele>
        <time>2013-12-06T11:41:57Z</time>
      </trkpt>
      <trkpt lat="48.92884" lon="2.01354">
        <ele>8.79</ele>
        <time>2013-12-06T11:42:07Z</time>
      </trkpt>
      <trkpt lat="48.92892" lon="2.01328">
        <ele>10.71</ele>
        <time>2013-12-06T11:42:21Z</time>
      </trkpt>
      <trkpt lat="48.92895" lon="2.01305">
        <ele>11.19</ele>
        <time>2013-12-06T11:42:35Z</time>
      </trkpt>
      <trkpt lat="48.92901" lon="2.01282">
        <ele>10.71</ele>
        <time>2013-12-06T11:42:51Z</time>
      </trkpt>
      <trkpt lat="48.9291" lon="2.01256">
        <ele>13.12</ele>
        <time>2013-12-06T11:43:06Z</time>
      </trkpt>
      <trkpt lat="48.92917" lon="2.01237">
        <ele>14.56</ele>
        <time>2013-12-06T11:43:17Z</time>
      </trkpt>
      <trkpt lat="48.92925" lon="2.01208">
        <ele>11.67</ele>
        <time>2013-12-06T11:43:34Z</time>
      </trkpt>
      <trkpt lat="48.92931" lon="2.01179">
        <ele>10.23</ele>
        <time>2013-12-06T11:43:51Z</time>
      </trkpt>
      <trkpt lat="48.92934" lon="2.01152">
        <ele>8.31</ele>
        <time>2013-12-06T11:44:06Z</time>
      </trkpt>
      <trkpt lat="48.92942" lon="2.01127">
        <ele>11.19</ele>
        <time>2013-12-06T11:44:20Z</time>
      </trkpt>
      <trkpt lat="48.92952" lon="2.01103">
        <ele>14.56</ele>
        <time>2013-12-06T11:44:34Z</time>
      </trkpt>
      <trkpt lat="48.92962" lon="2.01078">
        <ele>16.48</ele>
        <time>2013-12-06T11:44:50Z</time>
      </trkpt>
      <trkpt lat="48.92969" lon="2.0105">
        <ele>18.4</ele>
        <time>2013-12-06T11:45:09Z</time>
      </trkpt>
      <trkpt lat="48.92977" lon="2.01026">
        <ele>17.44</ele>
        <time>2013-12-06T11:45:24Z</time>
      </trkpt>
      <trkpt lat="48.92987" lon="2.00998">
        <ele>16</ele>
        <time>2013-12-06T11:45:41Z</time>
      </trkpt>
      <trkpt lat="48.92989" lon="2.00995">
        <ele>16.48</ele>
        <time>2013-12-06T11:45:44Z</time>
      </trkpt>
      <trkpt lat="48.92997" lon="2.00972">
        <ele>16</ele>
        <time>2013-12-06T11:45:59Z</time>
      </trkpt>
      <trkpt lat="48.9301" lon="2.00944">
        <ele>16</ele>
        <time>2013-12-06T11:46:18Z</time>
      </trkpt>
      <trkpt lat="48.93024" lon="2.00922">
        <ele>13.12</ele>
        <time>2013-12-06T11:46:35Z</time>
      </trkpt>
      <trkpt lat="48.93035" lon="2.00898">
        <ele>10.71</ele>
        <time>2013-12-06T11:46:53Z</time>
      </trkpt>
      <trkpt lat="48.93051" lon="2.00876">
        <ele>11.67</ele>
        <time>2013-12-06T11:47:11Z</time>
      </trkpt>
      <trkpt lat="48.93067" lon="2.00859">
        <ele>13.12</ele>
        <time>2013-12-06T11:47:27Z</time>
      </trkpt>
      <trkpt lat="48.93083" lon="2.00837">
        <ele>13.6</ele>
        <time>2013-12-06T11:47:45Z</time>
      </trkpt>
      <trkpt lat="48.93089" lon="2.00829">
        <ele>12.63</ele>
        <time>2013-12-06T11:47:52Z</time>
      </trkpt>
      <trkpt lat="48.93102" lon="2.00804">
        <ele>13.6</ele>
        <time>2013-12-06T11:48:09Z</time>
      </trkpt>
      <trkpt lat="48.93113" lon="2.00782">
        <ele>14.08</ele>
        <time>2013-12-06T11:48:23Z</time>
      </trkpt>
      <trkpt lat="48.93125" lon="2.0076">
        <ele>13.6</ele>
        <time>2013-12-06T11:48:41Z</time>
      </trkpt>
      <trkpt lat="48.93138" lon="2.00737">
        <ele>12.15</ele>
        <time>2013-12-06T11:48:59Z</time>
      </trkpt>
      <trkpt lat="48.93151" lon="2.00712">
        <ele>13.6</ele>
        <time>2013-12-06T11:49:15Z</time>
      </trkpt>
      <trkpt lat="48.93162" lon="2.00688">
        <ele>15.04</ele>
        <time>2013-12-06T11:49:30Z</time>
      </trkpt>
      <trkpt lat="48.93166" lon="2.00667">
        <ele>15.04</ele>
        <time>2013-12-06T11:49:43Z</time>
      </trkpt>
      <trkpt lat="48.9317" lon="2.00637">
        <ele>16.96</ele>
        <time>2013-12-06T11:50:01Z</time>
      </trkpt>
      <trkpt lat="48.93169" lon="2.00604">
        <ele>17.44</ele>
        <time>2013-12-06T11:50:17Z</time>
      </trkpt>
      <trkpt lat="48.93169" lon="2.00596">
        <ele>16.96</ele>
        <time>2013-12-06T11:50:21Z</time>
      </trkpt>
      <trkpt lat="48.93161" lon="2.00582">
        <ele>16.48</ele>
        <time>2013-12-06T11:50:31Z</time>
      </trkpt>
      <trkpt lat="48.93156" lon="2.00578">
        <ele>17.44</ele>
        <time>2013-12-06T11:50:37Z</time>
      </trkpt>
      <trkpt lat="48.93148" lon="2.00557">
        <ele>18.4</ele>
        <time>2013-12-06T11:50:52Z</time>
      </trkpt>
      <trkpt lat="48.93147" lon="2.00537">
        <ele>17.44</ele>
        <time>2013-12-06T11:51:04Z</time>
      </trkpt>
      <trkpt lat="48.93144" lon="2.00524">
        <ele>18.4</ele>
        <time>2013-12-06T11:51:12Z</time>
      </trkpt>
      <trkpt lat="48.93137" lon="2.00511">
        <ele>20.81</ele>
        <time>2013-12-06T11:51:26Z</time>
      </trkpt>
      <trkpt lat="48.93132" lon="2.00496">
        <ele>20.81</ele>
        <time>2013-12-06T11:51:39Z</time>
      </trkpt>
      <trkpt lat="48.93129" lon="2.00484">
        <ele>21.29</ele>
        <time>2013-12-06T11:51:50Z</time>
      </trkpt>
      <trkpt lat="48.93124" lon="2.00472">
        <ele>21.29</ele>
        <time>2013-12-06T11:52:03Z</time>
      </trkpt>
      <trkpt lat="48.93123" lon="2.00468">
        <ele>21.29</ele>
        <time>2013-12-06T11:52:07Z</time>
      </trkpt>
      <trkpt lat="48.93118" lon="2.00453">
        <ele>21.29</ele>
        <time>2013-12-06T11:52:20Z</time>
      </trkpt>
      <trkpt lat="48.93117" lon="2.00448">
        <ele>21.29</ele>
        <time>2013-12-06T11:52:25Z</time>
      </trkpt>
      <trkpt lat="48.93114" lon="2.00439">
        <ele>22.25</ele>
        <time>2013-12-06T11:52:36Z</time>
      </trkpt>
      <trkpt lat="48.9311" lon="2.00429">
        <ele>24.17</ele>
        <time>2013-12-06T11:52:47Z</time>
      </trkpt>
      <trkpt lat="48.93109" lon="2.00426">
        <ele>24.17</ele>
        <time>2013-12-06T11:52:50Z</time>
      </trkpt>
      <trkpt lat="48.93105" lon="2.00416">
        <ele>24.17</ele>
        <time>2013-12-06T11:53:01Z</time>
      </trkpt>
      <trkpt lat="48.93101" lon="2.00408">
        <ele>25.61</ele>
        <time>2013-12-06T11:53:12Z</time>
      </trkpt>
      <trkpt lat="48.93104" lon="2.00401">
        <ele>29.94</ele>
        <time>2013-12-06T11:53:22Z</time>
      </trkpt>
      <trkpt lat="48.93122" lon="2.00381">
        <ele>31.38</ele>
        <time>2013-12-06T11:53:41Z</time>
      </trkpt>
      <trkpt lat="48.93132" lon="2.00366">
        <ele>29.94</ele>
        <time>2013-12-06T11:53:54Z</time>
      </trkpt>
      <trkpt lat="48.93146" lon="2.0035">
        <ele>29.94</ele>
        <time>2013-12-06T11:54:08Z</time>
      </trkpt>
      <trkpt lat="48.93156" lon="2.00337">
        <ele>28.02</ele>
        <time>2013-12-06T11:54:23Z</time>
      </trkpt>
      <trkpt lat="48.93175" lon="2.00314">
        <ele>28.5</ele>
        <time>2013-12-06T11:54:40Z</time>
      </trkpt>
      <trkpt lat="48.93193" lon="2.00287">
        <ele>33.78</ele>
        <time>2013-12-06T11:54:59Z</time>
      </trkpt>
      <trkpt lat="48.93214" lon="2.00261">
        <ele>36.67</ele>
        <time>2013-12-06T11:55:20Z</time>
      </trkpt>
      <trkpt lat="48.93222" lon="2.00254">
        <ele>35.23</ele>
        <time>2013-12-06T11:55:32Z</time>
      </trkpt>
      <trkpt lat="48.93235" lon="2.00246">
        <ele>34.26</ele>
        <time>2013-12-06T11:55:49Z</time>
      </trkpt>
      <trkpt lat="48.93253" lon="2.00234">
        <ele>35.23</ele>
        <time>2013-12-06T11:56:07Z</time>
      </trkpt>
      <trkpt lat="48.9327" lon="2.00224">
        <ele>32.34</ele>
        <time>2013-12-06T11:56:23Z</time>
      </trkpt>
      <trkpt lat="48.9329" lon="2.00212">
        <ele>28.98</ele>
        <time>2013-12-06T11:56:38Z</time>
      </trkpt>
      <trkpt lat="48.93311" lon="2.00193">
        <ele>27.05</ele>
        <time>2013-12-06T11:56:55Z</time>
      </trkpt>
      <trkpt lat="48.93326" lon="2.00176">
        <ele>26.09</ele>
        <time>2013-12-06T11:57:09Z</time>
      </trkpt>
      <trkpt lat="48.93337" lon="2.00161">
        <ele>26.57</ele>
        <time>2013-12-06T11:57:24Z</time>
      </trkpt>
      <trkpt lat="48.93347" lon="2.0014">
        <ele>26.57</ele>
        <time>2013-12-06T11:57:39Z</time>
      </trkpt>
      <trkpt lat="48.93364" lon="2.00118">
        <ele>27.05</ele>
        <time>2013-12-06T11:57:55Z</time>
      </trkpt>
      <trkpt lat="48.93376" lon="2.00102">
        <ele>28.98</ele>
        <time>2013-12-06T11:58:08Z</time>
      </trkpt>
      <trkpt lat="48.93389" lon="2.00088">
        <ele>29.94</ele>
        <time>2013-12-06T11:58:21Z</time>
      </trkpt>
      <trkpt lat="48.93393" lon="2.00086">
        <ele>29.46</ele>
        <time>2013-12-06T11:58:24Z</time>
      </trkpt>
      <trkpt lat="48.93407" lon="2.00067">
        <ele>30.9</ele>
        <time>2013-12-06T11:58:39Z</time>
      </trkpt>
      <trkpt lat="48.93425" lon="2.00044">
        <ele>33.78</ele>
        <time>2013-12-06T11:58:58Z</time>
      </trkpt>
      <trkpt lat="48.93422" lon="2.00042">
        <ele>33.78</ele>
        <time>2013-12-06T11:59:12Z</time>
      </trkpt>
      <trkpt lat="48.93422" lon="2.00042">
        <ele>33.78</ele>
        <time>2013-12-06T11:59:26Z</time>
      </trkpt>
      <trkpt lat="48.93433" lon="2.00039">
        <ele>31.86</ele>
        <time>2013-12-06T11:59:40Z</time>
      </trkpt>
      <trkpt lat="48.93435" lon="2.00037">
        <ele>31.38</ele>
        <time>2013-12-06T11:59:42Z</time>
      </trkpt>
      <trkpt lat="48.93453" lon="2.00018">
        <ele>28.02</ele>
        <time>2013-12-06T12:00:00Z</time>
      </trkpt>
      <trkpt lat="48.93455" lon="2.00017">
        <ele>28.02</ele>
        <time>2013-12-06T12:00:02Z</time>
      </trkpt>
      <trkpt lat="48.93471" lon="1.99988">
        <ele>26.57</ele>
        <time>2013-12-06T12:00:23Z</time>
      </trkpt>
      <trkpt lat="48.93485" lon="1.99971">
        <ele>26.57</ele>
        <time>2013-12-06T12:00:39Z</time>
      </trkpt>
      <trkpt lat="48.93495" lon="1.99959">
        <ele>25.61</ele>
        <time>2013-12-06T12:00:50Z</time>
      </trkpt>
      <trkpt lat="48.93513" lon="1.9995">
        <ele>24.65</ele>
        <time>2013-12-06T12:01:08Z</time>
      </trkpt>
      <trkpt lat="48.93533" lon="1.99939">
        <ele>21.77</ele>
        <time>2013-12-06T12:01:28Z</time>
      </trkpt>
      <trkpt lat="48.93564" lon="1.99937">
        <ele>20.81</ele>
        <time>2013-12-06T12:01:48Z</time>
      </trkpt>
      <trkpt lat="48.93587" lon="1.99933">
        <ele>18.88</ele>
        <time>2013-12-06T12:02:10Z</time>
      </trkpt>
      <trkpt lat="48.93603" lon="1.9993">
        <ele>19.36</ele>
        <time>2013-12-06T12:02:25Z</time>
      </trkpt>
      <trkpt lat="48.93611" lon="1.9993">
        <ele>19.84</ele>
        <time>2013-12-06T12:02:31Z</time>
      </trkpt>
      <trkpt lat="48.93639" lon="1.99928">
        <ele>20.81</ele>
        <time>2013-12-06T12:02:48Z</time>
      </trkpt>
      <trkpt lat="48.93665" lon="1.99915">
        <ele>24.17</ele>
        <time>2013-12-06T12:03:10Z</time>
      </trkpt>
      <trkpt lat="48.93692" lon="1.99908">
        <ele>24.17</ele>
        <time>2013-12-06T12:03:31Z</time>
      </trkpt>
      <trkpt lat="48.937" lon="1.99909">
        <ele>25.13</ele>
        <time>2013-12-06T12:03:38Z</time>
      </trkpt>
      <trkpt lat="48.93726" lon="1.99898">
        <ele>22.73</ele>
        <time>2013-12-06T12:04:01Z</time>
      </trkpt>
      <trkpt lat="48.9375" lon="1.99897">
        <ele>19.84</ele>
        <time>2013-12-06T12:04:20Z</time>
      </trkpt>
      <trkpt lat="48.93775" lon="1.99884">
        <ele>19.84</ele>
        <time>2013-12-06T12:04:41Z</time>
      </trkpt>
      <trkpt lat="48.93799" lon="1.99878">
        <ele>21.77</ele>
        <time>2013-12-06T12:04:59Z</time>
      </trkpt>
      <trkpt lat="48.93812" lon="1.99875">
        <ele>24.65</ele>
        <time>2013-12-06T12:05:12Z</time>
      </trkpt>
      <trkpt lat="48.93838" lon="1.99876">
        <ele>20.81</ele>
        <time>2013-12-06T12:05:32Z</time>
      </trkpt>
      <trkpt lat="48.9386" lon="1.99875">
        <ele>21.77</ele>
        <time>2013-12-06T12:05:50Z</time>
      </trkpt>
      <trkpt lat="48.93877" lon="1.99877">
        <ele>27.05</ele>
        <time>2013-12-06T12:06:09Z</time>
      </trkpt>
      <trkpt lat="48.93886" lon="1.9988">
        <ele>27.53</ele>
        <time>2013-12-06T12:06:25Z</time>
      </trkpt>
      <trkpt lat="48.93905" lon="1.99872">
        <ele>18.4</ele>
        <time>2013-12-06T12:06:39Z</time>
      </trkpt>
      <trkpt lat="48.93913" lon="1.99878">
        <ele>17.44</ele>
        <time>2013-12-06T12:06:50Z</time>
      </trkpt>
      <trkpt lat="48.93919" lon="1.9989">
        <ele>18.88</ele>
        <time>2013-12-06T12:06:58Z</time>
      </trkpt>
      <trkpt lat="48.93927" lon="1.99918">
        <ele>18.4</ele>
        <time>2013-12-06T12:07:16Z</time>
      </trkpt>
      <trkpt lat="48.93931" lon="1.99933">
        <ele>16.96</ele>
        <time>2013-12-06T12:07:29Z</time>
      </trkpt>
      <trkpt lat="48.93933" lon="1.99942">
        <ele>16.48</ele>
        <time>2013-12-06T12:07:43Z</time>
      </trkpt>
      <trkpt lat="48.93935" lon="1.99949">
        <ele>15.52</ele>
        <time>2013-12-06T12:07:57Z</time>
      </trkpt>
      <trkpt lat="48.93948" lon="1.9995">
        <ele>14.08</ele>
        <time>2013-12-06T12:08:11Z</time>
      </trkpt>
      <trkpt lat="48.93953" lon="1.9994">
        <ele>11.19</ele>
        <time>2013-12-06T12:08:19Z</time>
      </trkpt>
      <trkpt lat="48.93964" lon="1.99939">
        <ele>9.27</ele>
        <time>2013-12-06T12:08:30Z</time>
      </trkpt>
      <trkpt lat="48.93964" lon="1.99935">
        <ele>8.79</ele>
        <time>2013-12-06T12:08:42Z</time>
      </trkpt>
      <trkpt lat="48.93961" lon="1.99936">
        <ele>8.79</ele>
        <time>2013-12-06T12:08:47Z</time>
      </trkpt>
      <trkpt lat="48.93957" lon="1.99933">
        <ele>9.75</ele>
        <time>2013-12-06T12:09:01Z</time>
      </trkpt>
      <trkpt lat="48.93959" lon="1.9994">
        <ele>8.79</ele>
        <time>2013-12-06T12:09:12Z</time>
      </trkpt>
      <trkpt lat="48.93958" lon="1.99943">
        <ele>8.79</ele>
        <time>2013-12-06T12:09:23Z</time>
      </trkpt>
      <trkpt lat="48.93948" lon="1.9995">
        <ele>10.23</ele>
        <time>2013-12-06T12:09:38Z</time>
      </trkpt>
      <trkpt lat="48.93936" lon="1.99949">
        <ele>11.67</ele>
        <time>2013-12-06T12:09:51Z</time>
      </trkpt>
      <trkpt lat="48.93925" lon="1.99955">
        <ele>16</ele>
        <time>2013-12-06T12:10:07Z</time>
      </trkpt>
      <trkpt lat="48.93926" lon="1.99971">
        <ele>14.56</ele>
        <time>2013-12-06T12:10:19Z</time>
      </trkpt>
      <trkpt lat="48.93933" lon="1.99973">
        <ele>10.71</ele>
        <time>2013-12-06T12:10:32Z</time>
      </trkpt>
      <trkpt lat="48.93936" lon="1.99974">
        <ele>9.75</ele>
        <time>2013-12-06T12:10:46Z</time>
      </trkpt>
      <trkpt lat="48.93944" lon="1.99974">
        <ele>9.27</ele>
        <time>2013-12-06T12:11:05Z</time>
      </trkpt>
      <trkpt lat="48.93945" lon="1.99973">
        <ele>9.27</ele>
        <time>2013-12-06T12:11:25Z</time>
      </trkpt>
      <trkpt lat="48.93936" lon="1.99975">
        <ele>9.27</ele>
        <time>2013-12-06T12:11:52Z</time>
      </trkpt>
    </trkseg>
  </trk>
</gpx>